South Armidale Weather

South Armidale Weather


Today's Observations
Date Time Temperature Humidity Dewpoint Wind Speed High Gust Wind Bearing Rainfall Rate Total Rainfall Pressure Gust Wind Chill Heat Index UV Index
24/05/18 13:04 26.2 32 8.2 0.0 2.5 314 34.8 0.0 1019.0 0.0 26.2 26.2 0.0
24/05/18 13:03 26.1 32 8.1 0.0 2.5 314 34.8 0.0 1019.0 2.5 26.1 26.1 0.0
24/05/18 13:02 26.1 32 8.1 0.0 2.2 314 34.8 0.0 1019.0 0.0 25.9 26.1 0.0
24/05/18 13:02 25.9 32 7.9 0.0 2.2 314 34.8 0.0 1019.0 0.0 25.9 25.9 0.0
24/05/18 13:01 25.9 33 8.4 0.0 2.2 314 34.8 0.0 1019.0 0.0 25.9 25.9 0.0
24/05/18 13:00 25.9 33 8.4 0.0 2.2 314 34.8 0.0 1019.0 0.0 25.9 25.9 0.0
24/05/18 12:59 25.9 33 8.4 0.0 2.2 314 34.8 0.0 1019.0 0.0 25.9 25.9 0.0
24/05/18 12:58 26.0 33 8.5 0.0 2.2 314 34.8 0.0 1019.0 0.0 26.0 26.0 0.0
24/05/18 12:57 25.7 33 8.2 0.0 2.2 314 34.8 0.0 1019.0 0.0 25.7 25.7 0.0
24/05/18 12:56 25.7 32 7.8 0.0 3.6 314 34.8 0.0 1019.0 1.4 25.7 25.7 0.0
24/05/18 12:55 25.8 33 8.3 0.0 3.6 314 34.8 0.0 1019.0 0.0 25.8 25.8 0.0
24/05/18 12:54 26.0 32 8.0 0.0 4.3 314 34.8 0.0 1020.0 2.2 26.0 26.0 0.0
24/05/18 12:53 26.0 32 8.0 0.0 4.3 314 34.8 0.0 1020.0 0.0 26.0 26.0 0.0
24/05/18 12:52 25.8 33 8.3 0.0 4.3 314 34.8 0.0 1020.0 0.0 25.8 25.8 0.0
24/05/18 12:51 25.8 33 8.3 1.4 4.3 314 34.8 0.0 1020.0 0.0 25.8 25.8 0.0
24/05/18 12:50 25.6 33 8.1 0.0 4.3 314 34.8 0.0 1020.0 2.2 25.6 25.6 0.0
24/05/18 12:49 25.4 33 8.0 0.0 4.3 314 34.8 0.0 1020.0 0.0 25.4 25.4 0.0
24/05/18 12:48 25.1 32 7.2 0.0 4.3 314 34.8 0.0 1020.0 0.0 25.1 25.1 0.0
24/05/18 12:47 25.4 32 7.5 2.2 4.3 314 34.8 0.0 1020.0 3.6 25.4 25.4 0.0
24/05/18 12:46 25.6 32 7.7 3.6 4.3 314 34.8 0.0 1020.0 2.5 25.6 25.6 0.0
24/05/18 12:45 26.1 32 8.1 0.0 4.3 314 34.8 0.0 1020.0 4.3 26.1 26.1 0.0
24/05/18 12:44 26.3 32 8.3 0.0 3.2 314 34.8 0.0 1020.0 1.4 26.3 26.3 0.0
24/05/18 12:43 26.3 32 8.3 0.0 3.2 314 34.8 0.0 1020.0 1.4 26.3 26.3 0.0
24/05/18 12:42 26.6 32 8.5 1.4 3.2 291 34.8 0.0 1020.0 0.0 26.6 26.6 0.0
24/05/18 12:41 26.7 32 8.6 0.0 3.2 273 34.8 0.0 1020.0 3.2 26.7 26.3 0.0
24/05/18 12:40 26.8 32 8.7 1.4 1.4 225 34.8 0.0 1020.0 0.0 26.8 26.4 0.0
24/05/18 12:39 26.7 32 8.6 0.0 1.4 225 34.8 0.0 1021.0 0.0 26.7 26.3 0.0
24/05/18 12:38 27.1 32 9.0 0.0 2.2 225 34.8 0.0 1021.0 0.0 27.1 26.6 0.0
24/05/18 12:37 27.0 32 8.9 0.0 2.2 225 34.8 0.0 1021.0 0.0 27.0 26.5 0.0
24/05/18 12:36 27.1 32 9.0 1.4 2.2 225 34.8 0.0 1021.0 0.0 27.1 26.6 0.0
24/05/18 12:35 27.4 33 9.7 0.0 2.2 225 34.8 0.0 1021.0 0.0 27.4 26.8 0.0
24/05/18 12:34 27.4 32 9.2 1.4 2.2 225 34.8 0.0 1021.0 0.0 27.4 26.8 0.0
24/05/18 12:33 27.4 32 9.2 1.4 2.2 225 34.8 0.0 1021.0 1.4 27.4 26.8 0.0
24/05/18 12:32 27.3 32 9.2 0.0 2.2 225 34.8 0.0 1021.0 1.4 27.3 26.7 0.0
24/05/18 12:31 27.2 32 9.1 0.0 2.2 225 34.8 0.0 1021.0 0.0 27.2 26.6 0.0
24/05/18 12:30 27.2 33 9.5 0.0 2.2 225 34.8 0.0 1021.0 0.0 27.2 26.7 0.0
24/05/18 12:29 27.1 33 9.4 1.8 2.2 225 34.8 0.0 1021.0 2.2 27.1 26.6 0.0
24/05/18 12:28 27.0 33 9.4 0.0 1.8 225 34.8 0.0 1021.0 1.8 27.0 26.5 0.0
24/05/18 12:27 26.9 33 9.3 0.0 1.8 225 34.8 0.0 1021.0 0.0 26.9 26.5 0.0
24/05/18 12:26 26.9 33 9.3 0.0 1.8 225 34.8 0.0 1021.0 0.0 26.9 26.5 0.0
24/05/18 12:25 26.9 33 9.3 1.4 1.8 225 34.8 0.0 1021.0 1.8 26.9 26.5 0.0
24/05/18 12:24 26.9 33 9.3 0.0 1.4 225 34.8 0.0 1021.0 0.0 26.9 26.5 0.0
24/05/18 12:23 26.8 33 9.2 0.0 1.4 225 34.8 0.0 1021.0 0.0 26.8 26.4 0.0
24/05/18 12:22 26.7 33 9.1 0.0 1.4 225 34.8 0.0 1021.0 0.0 26.7 26.4 0.0
24/05/18 12:21 26.7 33 9.1 0.0 2.2 225 34.8 0.0 1021.0 0.0 26.7 26.4 0.0
24/05/18 12:20 26.7 33 9.1 0.0 2.2 225 34.8 0.0 1021.0 0.0 26.7 26.4 0.0
24/05/18 12:19 26.7 33 9.1 0.0 2.2 213 34.8 0.0 1021.0 0.0 26.7 26.4 0.0
24/05/18 12:18 26.6 33 9.0 0.0 2.5 227 34.8 0.0 1021.0 0.0 26.6 26.6 0.0
24/05/18 12:17 26.5 33 8.9 0.0 2.5 227 34.8 0.0 1021.0 0.0 26.5 26.5 0.0
24/05/18 12:16 26.5 33 8.9 1.4 2.5 239 34.8 0.0 1021.0 0.0 26.5 26.5 0.0
24/05/18 12:15 26.5 33 8.9 0.0 2.5 246 34.8 0.0 1021.0 1.4 26.5 26.5 0.0
24/05/18 12:14 26.6 33 9.0 0.0 2.5 256 34.8 0.0 1021.0 1.4 26.6 26.6 0.0
24/05/18 12:13 26.5 33 8.9 1.4 2.5 270 34.8 0.0 1021.0 0.0 26.5 26.5 0.0
24/05/18 12:12 26.5 33 8.9 1.8 2.5 270 34.8 0.0 1021.0 1.4 26.5 26.5 0.0
24/05/18 12:11 26.5 33 8.9 1.8 2.5 276 34.8 0.0 1021.0 2.2 26.5 26.5 0.0
24/05/18 12:10 26.5 33 8.9 1.8 2.5 287 34.8 0.0 1021.0 1.4 26.5 26.5 0.0
24/05/18 12:09 26.4 33 8.8 1.8 2.5 294 34.8 0.0 1021.0 2.2 26.4 26.4 0.0
24/05/18 12:08 26.6 34 9.4 0.0 2.5 297 34.8 0.0 1021.0 2.5 26.6 26.6 0.0
24/05/18 12:07 26.3 33 8.7 0.0 2.2 305 34.8 0.0 1021.0 2.2 26.3 26.3 0.0
24/05/18 12:06 26.6 34 9.4 1.4 2.2 291 34.8 0.0 1021.0 1.4 26.6 26.6 0.0
24/05/18 12:05 26.4 34 9.3 0.0 2.2 272 34.8 0.0 1021.0 1.4 26.4 26.4 0.0
24/05/18 12:04 26.4 34 9.3 0.0 2.2 263 34.8 0.0 1021.0 2.2 26.4 26.4 0.0
24/05/18 12:02 26.3 33 8.7 0.0 1.8 243 34.8 0.0 1021.0 0.0 26.3 26.3 0.0
24/05/18 12:01 26.3 34 9.2 1.4 1.8 243 34.8 0.0 1021.0 0.0 26.3 26.3 0.0
24/05/18 12:00 26.1 33 8.6 0.0 1.8 243 34.8 0.0 1021.0 1.4 26.1 26.1 0.0
24/05/18 11:59 26.1 34 9.0 0.0 1.8 225 34.8 0.0 1021.0 1.4 26.1 26.1 0.0
24/05/18 11:58 26.0 33 8.5 1.4 1.8 225 34.8 0.0 1021.0 0.0 26.0 26.0 0.0
24/05/18 11:57 26.0 34 8.9 1.4 1.8 225 34.8 0.0 1021.0 1.4 26.0 26.0 0.0
24/05/18 11:56 26.1 34 9.0 0.0 1.8 225 34.8 0.0 1021.0 0.0 26.1 26.1 0.0
24/05/18 11:55 26.1 34 9.0 0.0 1.8 225 34.8 0.0 1021.0 1.8 26.1 26.1 0.0
24/05/18 11:54 26.4 34 9.3 0.0 1.8 225 34.8 0.0 1020.0 0.0 26.4 26.4 0.0
24/05/18 11:53 26.4 34 9.3 0.0 1.8 225 34.8 0.0 1020.0 0.0 26.4 26.4 0.0
24/05/18 11:52 26.4 34 9.3 0.0 1.8 225 34.8 0.0 1020.0 0.0 26.4 26.4 0.0
24/05/18 11:51 26.4 34 9.3 0.0 1.8 225 34.8 0.0 1020.0 0.0 26.4 26.4 0.0
24/05/18 11:50 26.3 34 9.2 0.0 1.8 225 34.8 0.0 1020.0 0.0 26.3 26.3 0.0
24/05/18 11:49 26.1 34 9.0 0.0 1.8 225 34.8 0.0 1020.0 1.4 26.1 26.1 0.0
24/05/18 11:48 26.0 34 8.9 0.0 1.8 225 34.8 0.0 1020.0 1.8 26.0 26.0 0.0
24/05/18 11:47 25.9 35 9.3 0.0 1.4 225 34.8 0.0 1020.0 0.0 25.9 25.9 0.0
24/05/18 11:46 25.9 35 9.3 0.0 1.4 225 34.8 0.0 1020.0 0.0 25.9 25.9 0.0
24/05/18 11:45 25.8 35 9.2 0.0 1.4 225 34.8 0.0 1020.0 0.0 25.8 25.8 0.0
24/05/18 11:44 25.8 35 9.2 0.0 3.6 225 34.8 0.0 1020.0 0.0 25.8 25.8 0.0
24/05/18 11:43 25.8 35 9.2 0.0 3.6 225 34.8 0.0 1020.0 1.4 25.8 25.8 0.0
24/05/18 11:42 25.6 35 9.0 0.0 3.6 225 34.8 0.0 1020.0 0.0 25.6 25.6 0.0
24/05/18 11:41 25.6 35 9.0 0.0 3.6 225 34.8 0.0 1020.0 0.0 25.6 25.6 0.0
24/05/18 11:40 25.6 35 9.0 1.4 3.6 225 34.8 0.0 1020.0 0.0 25.6 25.6 0.0
24/05/18 11:39 25.6 35 9.0 0.0 3.6 229 34.8 0.0 1021.0 0.0 25.6 25.6 0.0
24/05/18 11:38 25.7 35 9.1 0.0 3.6 228 34.8 0.0 1021.0 0.0 25.7 25.7 0.0
24/05/18 11:37 25.5 34 8.5 0.0 3.6 226 34.8 0.0 1021.0 0.0 25.5 25.5 0.0
24/05/18 11:36 25.6 35 9.0 1.8 3.6 216 34.8 0.0 1021.0 0.0 25.6 25.6 0.0
24/05/18 11:35 25.4 35 8.8 1.4 3.6 216 34.8 0.0 1021.0 3.6 25.4 25.4 0.0
24/05/18 11:34 25.3 34 8.3 1.4 2.5 213 34.8 0.0 1021.0 2.2 25.3 25.3 0.0
24/05/18 11:30 25.4 35 8.8 1.4 4.0 238 34.8 0.0 1021.0 2.5 25.4 25.4 0.0
24/05/18 11:29 25.5 34 8.5 0.0 4.0 220 34.8 0.0 1021.0 1.8 25.5 25.5 0.0
24/05/18 11:28 25.7 35 9.1 1.4 4.0 214 34.8 0.0 1021.0 1.4 25.7 25.7 0.0
24/05/18 11:27 25.8 35 9.2 1.4 4.0 189 34.8 0.0 1021.0 2.5 25.8 25.8 0.0
24/05/18 11:26 25.8 35 9.2 0.0 4.0 181 34.8 0.0 1021.0 1.4 25.8 25.8 0.0
24/05/18 11:25 25.7 35 9.1 1.8 4.0 181 34.8 0.0 1021.0 0.0 25.7 25.7 0.0
24/05/18 11:24 25.8 35 9.2 1.8 4.0 181 34.8 0.0 1021.0 2.2 25.9 25.8 0.0
24/05/18 11:23 25.9 36 9.7 0.0 4.0 181 34.8 0.0 1021.0 1.4 25.8 25.9 0.0
24/05/18 11:22 25.8 35 9.2 0.0 4.0 181 34.8 0.0 1021.0 0.0 25.8 25.8 0.0
24/05/18 11:21 25.9 35 9.3 2.2 4.0 181 34.8 0.0 1021.0 2.5 25.9 25.9 0.0
24/05/18 11:20 25.9 36 9.7 1.4 4.0 181 34.8 0.0 1021.0 1.8 25.9 25.9 0.0
24/05/18 11:19 25.8 35 9.2 0.0 4.0 181 34.8 0.0 1021.0 0.0 25.8 25.8 0.0
24/05/18 11:18 25.9 36 9.7 1.4 4.0 181 34.8 0.0 1021.0 0.0 25.9 25.9 0.0
24/05/18 11:17 25.8 36 9.6 1.4 4.0 181 34.8 0.0 1021.0 1.8 25.8 25.8 0.0
24/05/18 11:16 25.7 36 9.5 0.0 4.0 181 34.8 0.0 1021.0 2.5 25.7 25.7 0.0
24/05/18 11:15 25.5 36 9.3 2.2 4.0 181 34.8 0.0 1021.0 0.0 25.5 25.5 0.0
24/05/18 11:14 25.5 35 8.9 1.4 4.0 181 34.8 0.0 1021.0 2.2 25.5 25.5 0.0
24/05/18 11:13 25.4 35 8.8 0.0 4.0 188 34.8 0.0 1021.0 0.0 25.4 25.4 0.0
24/05/18 11:12 25.6 36 9.4 0.0 4.0 197 34.8 0.0 1021.0 1.4 25.6 25.6 0.0
24/05/18 11:11 25.6 36 9.4 0.0 4.0 203 34.8 0.0 1021.0 0.0 25.6 25.6 0.0
24/05/18 11:10 25.7 36 9.5 1.8 4.0 208 34.8 0.0 1021.0 1.8 25.7 25.7 0.0
24/05/18 11:09 25.6 36 9.4 0.0 4.0 214 34.8 0.0 1021.0 2.2 25.6 25.6 0.0
24/05/18 11:08 25.7 36 9.5 0.0 4.0 218 34.8 0.0 1021.0 0.0 25.7 25.7 0.0
24/05/18 11:07 25.7 36 9.5 1.4 4.0 228 34.8 0.0 1022.0 2.2 25.7 25.7 0.0
24/05/18 11:06 25.6 36 9.4 1.4 4.0 237 34.8 0.0 1022.0 1.8 25.6 25.6 0.0
24/05/18 11:05 25.7 36 9.5 2.2 4.0 251 34.8 0.0 1022.0 0.0 25.7 25.7 0.0
24/05/18 11:04 25.7 36 9.5 1.8 3.6 269 34.8 0.0 1022.0 2.5 25.7 25.7 0.0
24/05/18 11:03 25.7 36 9.5 1.4 2.5 277 34.8 0.0 1022.0 0.0 25.7 25.7 0.0
24/05/18 11:02 25.7 36 9.5 0.0 2.5 280 34.8 0.0 1022.0 0.0 25.7 25.7 0.0
24/05/18 11:02 25.9 37 10.1 1.8 2.5 284 34.8 0.0 1022.0 2.5 25.9 25.9 0.0
24/05/18 11:01 25.9 37 10.1 1.8 2.5 288 34.8 0.0 1022.0 2.5 25.9 25.9 0.0
24/05/18 11:00 25.9 37 10.1 1.4 2.5 299 34.8 0.0 1022.0 0.0 25.9 25.9 0.0
24/05/18 10:59 25.9 37 10.1 1.8 2.5 302 34.8 0.0 1022.0 0.0 25.9 25.9 0.0
24/05/18 10:58 25.9 37 10.1 1.4 2.5 302 34.8 0.0 1022.0 1.8 25.9 25.9 0.0
24/05/18 10:57 25.8 37 10.0 0.0 2.5 307 34.8 0.0 1022.0 1.8 25.8 25.8 0.0
24/05/18 10:56 25.8 38 10.4 1.8 2.5 314 34.8 0.0 1022.0 0.0 25.8 25.8 0.0
24/05/18 10:55 25.7 38 10.3 1.4 2.5 306 34.8 0.0 1022.0 2.5 25.7 25.7 0.0
24/05/18 10:54 25.7 38 10.3 1.8 2.5 304 34.8 0.0 1022.0 0.0 25.7 25.7 0.0
24/05/18 10:53 25.7 38 10.3 1.4 2.5 304 34.8 0.0 1022.0 1.8 25.7 25.7 0.0
24/05/18 10:52 25.7 38 10.3 2.2 2.5 304 34.8 0.0 1022.0 0.0 25.7 25.7 0.0
24/05/18 10:51 25.6 39 10.6 0.0 2.5 305 34.8 0.0 1022.0 2.2 25.6 25.6 0.0
24/05/18 10:50 25.5 38 10.1 0.0 2.5 303 34.8 0.0 1022.0 2.5 25.5 25.5 0.0
24/05/18 10:49 25.4 38 10.0 0.0 2.2 297 34.8 0.0 1022.0 0.0 25.4 25.4 0.0
24/05/18 10:48 25.4 39 10.4 0.0 2.2 301 34.8 0.0 1022.0 0.0 25.4 25.4 0.0
24/05/18 10:47 25.4 39 10.4 1.4 2.2 301 34.8 0.0 1022.0 0.0 25.4 25.4 0.0
24/05/18 10:46 25.4 39 10.4 0.0 2.2 301 34.8 0.0 1022.0 2.2 25.4 25.4 0.0
24/05/18 10:45 25.3 39 10.3 0.0 1.8 314 34.8 0.0 1022.0 0.0 25.3 25.3 0.0
24/05/18 10:44 25.3 39 10.3 1.4 1.8 314 34.8 0.0 1022.0 0.0 25.3 25.3 0.0
24/05/18 10:43 25.2 39 10.3 1.4 1.8 314 34.8 0.0 1022.0 1.8 25.2 25.2 0.0
24/05/18 10:42 25.2 39 10.3 1.8 3.6 314 34.8 0.0 1022.0 0.0 25.2 25.2 0.0
24/05/18 10:41 25.1 39 10.2 0.0 3.6 314 34.8 0.0 1022.0 1.4 25.1 25.1 0.0
24/05/18 10:40 25.1 38 9.8 1.4 3.6 314 34.8 0.0 1022.0 0.0 25.1 25.1 0.0
24/05/18 10:39 25.2 39 10.3 1.4 3.6 314 34.8 0.0 1022.0 1.8 25.2 25.2 0.0
24/05/18 10:38 25.2 40 10.6 0.0 3.6 314 34.8 0.0 1022.0 0.0 25.2 25.2 0.0
24/05/18 10:37 25.1 40 10.5 0.0 3.6 314 34.8 0.0 1022.0 0.0 25.1 25.1 0.0
24/05/18 10:36 25.0 40 10.5 0.0 3.6 314 34.8 0.0 1022.0 0.0 25.0 25.0 0.0
24/05/18 10:35 24.9 40 10.4 0.0 3.6 314 34.8 0.0 1022.0 0.0 24.9 24.9 0.0
24/05/18 10:34 24.9 39 10.0 1.4 3.6 314 34.8 0.0 1022.0 0.0 24.9 24.9 0.0
24/05/18 10:33 25.0 40 10.5 0.0 3.6 314 34.8 0.0 1022.0 3.6 25.0 25.0 0.0
24/05/18 10:32 25.0 41 10.8 2.2 3.6 314 34.8 0.0 1022.0 0.0 25.0 25.0 0.0
24/05/18 10:31 25.0 41 10.8 1.8 3.6 306 34.8 0.0 1022.0 1.8 25.0 25.0 0.0
24/05/18 10:30 25.0 41 10.8 1.4 3.6 305 34.8 0.0 1022.0 2.5 25.0 25.0 0.0
24/05/18 10:29 25.0 41 10.8 0.0 3.6 302 34.8 0.0 1022.0 3.6 25.0 25.0 0.0
24/05/18 10:28 25.0 41 10.8 1.8 2.5 299 34.8 0.0 1022.0 0.0 25.0 25.0 0.0
24/05/18 10:27 25.0 41 10.8 0.0 2.5 302 34.8 0.0 1022.0 2.5 25.0 25.0 0.0
24/05/18 10:26 24.8 41 10.6 0.0 2.5 301 34.8 0.0 1022.0 0.0 24.8 24.8 0.0
24/05/18 10:25 24.6 41 10.5 0.0 2.5 301 34.8 0.0 1022.0 0.0 24.6 24.6 0.0
24/05/18 10:24 24.8 41 10.6 0.0 2.5 301 34.8 0.0 1022.0 0.0 24.8 24.8 0.0
24/05/18 10:23 24.8 41 10.6 1.8 2.5 304 34.8 0.0 1022.0 0.0 24.8 24.8 0.0
24/05/18 10:22 24.7 42 10.9 1.8 3.2 298 34.8 0.0 1022.0 2.5 24.7 24.7 0.0
24/05/18 10:21 24.7 42 10.9 0.0 3.2 303 34.8 0.0 1022.0 0.0 24.7 24.7 0.0
24/05/18 10:20 24.7 42 10.9 1.8 3.2 296 34.8 0.0 1022.0 0.0 24.7 24.7 0.0
24/05/18 10:19 24.6 42 10.8 1.8 3.2 308 34.8 0.0 1022.0 2.2 24.6 24.6 0.0
24/05/18 10:18 24.5 42 10.7 1.4 3.2 308 34.8 0.0 1022.0 1.8 24.5 24.5 0.0
24/05/18 10:17 24.5 42 10.7 0.0 3.2 307 34.8 0.0 1022.0 1.8 24.5 24.5 0.0
24/05/18 10:16 24.4 42 10.7 0.0 3.2 305 34.8 0.0 1022.0 0.0 24.4 24.4 0.0
24/05/18 10:15 24.5 42 10.7 1.4 3.2 305 34.8 0.0 1022.0 0.0 24.5 24.5 0.0
24/05/18 10:14 24.4 42 10.7 1.4 3.2 311 34.8 0.0 1022.0 1.8 24.4 24.4 0.0
24/05/18 10:13 24.2 42 10.5 1.8 3.2 310 34.8 0.0 1022.0 1.8 24.2 24.2 0.0
24/05/18 10:12 24.4 43 11.0 2.2 3.2 309 34.8 0.0 1022.0 3.2 24.4 24.4 0.0
24/05/18 10:11 24.3 43 10.9 1.8 3.2 329 34.8 0.0 1022.0 3.2 24.3 24.3 0.0
24/05/18 10:10 24.3 43 10.9 2.2 2.5 1 34.8 0.0 1022.0 1.4 24.3 24.3 0.0
24/05/18 10:09 24.2 43 10.8 0.0 2.5 1 34.8 0.0 1022.0 2.5 24.2 24.2 0.0
24/05/18 10:08 24.0 42 10.3 0.0 1.4 1 34.8 0.0 1022.0 0.0 24.0 24.0 0.0
24/05/18 10:07 24.2 43 10.8 0.0 1.4 1 34.8 0.0 1022.0 0.0 24.2 24.2 0.0
24/05/18 10:06 24.0 43 10.6 0.0 2.2 1 34.8 0.0 1022.0 0.0 24.0 24.0 0.0
24/05/18 10:05 24.0 43 10.6 0.0 2.2 1 34.8 0.0 1022.0 1.4 24.0 24.0 0.0
24/05/18 10:04 23.9 44 10.9 1.8 2.2 1 34.8 0.0 1023.0 0.0 23.9 23.9 0.0
24/05/18 10:00 23.8 44 10.8 1.4 2.5 1 34.8 0.0 1022.0 1.4 23.8 23.8 0.0
24/05/18 09:59 23.7 44 10.7 1.4 2.5 1 34.8 0.0 1022.0 1.4 23.7 23.7 0.0
24/05/18 09:58 23.7 44 10.7 0.0 2.5 1 34.8 0.0 1022.0 0.0 23.7 23.7 0.0
24/05/18 09:57 23.7 44 10.7 1.4 2.5 1 34.8 0.0 1022.0 0.0 23.7 23.7 0.0
24/05/18 09:56 23.7 44 10.7 1.4 2.5 1 34.8 0.0 1022.0 2.2 23.7 23.7 0.0
24/05/18 09:55 23.7 45 11.1 0.0 2.5 1 34.8 0.0 1022.0 0.0 23.7 23.7 0.0
24/05/18 09:54 23.6 44 10.6 0.0 2.5 1 34.8 0.0 1022.0 0.0 23.6 23.6 0.0
24/05/18 09:53 23.5 45 10.9 0.0 2.5 352 34.8 0.0 1022.0 0.0 23.5 23.5 0.0
24/05/18 09:52 23.5 44 10.5 0.0 2.5 352 34.8 0.0 1022.0 0.0 23.5 23.5 0.0
24/05/18 09:51 23.4 45 10.8 0.0 2.5 345 34.8 0.0 1022.0 0.0 23.4 23.4 0.0
24/05/18 09:50 23.3 44 10.4 0.0 2.5 339 34.8 0.0 1022.0 1.8 23.3 23.3 0.0
24/05/18 09:49 23.3 45 10.7 0.0 2.5 329 34.8 0.0 1022.0 0.0 23.3 23.3 0.0
24/05/18 09:48 23.2 46 10.9 0.0 2.5 328 34.8 0.0 1022.0 1.4 23.2 23.2 0.0
24/05/18 09:47 23.0 45 10.4 0.0 2.5 323 34.8 0.0 1022.0 0.0 23.0 23.0 0.0
24/05/18 09:46 22.9 45 10.3 0.0 2.5 321 34.8 0.0 1022.0 0.0 22.9 22.9 0.0
24/05/18 09:45 22.8 45 10.2 0.0 2.2 314 34.8 0.0 1022.0 0.0 22.8 22.8 0.0
24/05/18 09:44 22.8 46 10.6 1.4 2.5 320 34.8 0.0 1022.0 0.0 22.8 22.8 0.0
24/05/18 09:43 22.6 44 9.7 0.0 2.5 324 34.8 0.0 1022.0 0.0 22.6 22.6 0.0
24/05/18 09:42 22.7 46 10.5 0.0 2.5 323 34.8 0.0 1022.0 0.0 22.7 22.7 0.0
24/05/18 09:41 22.8 47 10.9 0.0 2.5 322 34.8 0.0 1022.0 0.0 22.8 22.8 0.0
24/05/18 09:40 22.7 47 10.8 1.8 2.5 325 34.8 0.0 1022.0 1.8 22.7 22.7 0.0
24/05/18 09:39 22.6 47 10.7 0.0 2.5 327 34.8 0.0 1022.0 0.0 22.6 22.6 0.0
24/05/18 09:38 22.5 47 10.6 0.0 2.5 333 34.8 0.0 1022.0 0.0 22.5 22.5 0.0
24/05/18 09:37 22.4 48 10.8 0.0 2.5 335 34.8 0.0 1022.0 0.0 22.4 22.4 0.0
24/05/18 09:36 22.3 48 10.8 0.0 2.5 337 34.8 0.0 1022.0 0.0 22.3 22.3 0.0
24/05/18 09:35 22.2 48 10.7 1.8 2.5 340 34.8 0.0 1022.0 2.5 22.2 22.2 0.0
24/05/18 09:34 22.1 47 10.3 1.4 2.5 342 34.8 0.0 1022.0 1.8 22.1 22.1 0.0
24/05/18 09:33 22.1 48 10.6 1.8 3.2 343 34.8 0.0 1022.0 2.5 22.1 22.1 0.0
24/05/18 09:32 22.1 49 10.9 1.4 3.2 355 34.8 0.0 1022.0 1.8 22.1 22.1 0.0
24/05/18 09:31 22.1 50 11.2 1.4 3.2 357 34.8 0.0 1022.0 2.2 22.1 22.1 0.0
24/05/18 09:30 21.9 49 10.7 0.0 3.2 1 34.8 0.0 1022.0 0.0 21.9 21.9 0.0
24/05/18 09:29 21.8 51 11.2 1.4 3.2 1 34.8 0.0 1022.0 0.0 21.8 21.8 0.0
24/05/18 09:28 21.7 51 11.1 0.0 3.2 347 34.8 0.0 1022.0 1.4 21.7 21.7 0.0
24/05/18 09:27 21.6 51 11.0 0.0 3.2 348 34.8 0.0 1022.0 0.0 21.6 21.6 0.0
24/05/18 09:26 21.6 51 11.0 0.0 3.2 348 34.8 0.0 1022.0 1.4 21.6 21.6 0.0
24/05/18 09:25 21.5 52 11.2 0.0 3.2 345 34.8 0.0 1022.0 0.0 21.5 21.5 0.0
24/05/18 09:24 21.4 52 11.1 1.8 3.2 340 34.8 0.0 1022.0 1.4 21.4 21.4 0.0
24/05/18 09:23 21.3 52 11.0 1.4 3.2 336 34.8 0.0 1022.0 1.8 21.3 21.3 0.0
24/05/18 09:22 21.2 52 10.9 0.0 3.2 333 34.8 0.0 1022.0 2.5 21.1 21.2 0.0
24/05/18 09:21 21.0 53 11.1 0.0 3.2 331 34.8 0.0 1022.0 0.0 21.0 21.0 0.0
24/05/18 09:20 20.9 54 11.2 1.4 3.2 329 34.8 0.0 1022.0 2.5 20.9 20.9 0.0
24/05/18 09:19 20.8 54 11.1 1.4 4.0 334 34.8 0.0 1022.0 1.8 20.8 20.8 0.0
24/05/18 09:18 20.6 54 11.0 1.8 5.4 353 34.8 0.0 1022.0 2.5 20.6 20.6 0.0
24/05/18 09:17 20.5 54 10.9 0.0 5.4 353 34.8 0.0 1022.0 1.8 20.5 20.5 0.0
24/05/18 09:16 20.4 54 10.8 0.0 5.4 354 34.8 0.0 1022.0 0.0 20.4 20.4 0.0
24/05/18 09:15 20.3 55 11.0 1.4 5.4 357 34.8 0.0 1022.0 0.0 20.1 20.3 0.0
24/05/18 09:14 20.1 54 10.5 0.0 5.4 1 34.8 0.0 1022.0 0.0 20.0 20.1 0.0
24/05/18 09:13 19.9 56 10.9 1.4 5.4 6 34.8 0.0 1022.0 0.0 19.9 19.9 0.0
24/05/18 09:12 19.6 55 10.3 0.0 5.4 7 34.8 0.0 1022.0 0.0 19.6 19.6 0.0
24/05/18 09:11 19.5 56 10.5 0.0 5.4 7 34.8 0.0 1022.0 0.0 19.5 19.5 0.0
24/05/18 09:10 19.4 54 9.8 2.2 5.4 8 34.8 0.0 1022.0 1.4 19.4 19.4 0.0
24/05/18 09:09 19.4 55 10.1 1.8 5.4 11 34.8 0.0 1022.0 1.8 19.4 19.4 0.0
24/05/18 09:08 19.3 54 9.8 1.8 4.3 14 34.8 0.0 1022.0 0.0 19.3 19.3 0.0
24/05/18 09:07 19.3 54 9.8 1.8 4.3 16 34.8 0.0 1023.0 0.0 19.5 19.3 0.0
24/05/18 09:06 19.7 56 10.7 2.5 4.3 18 34.8 0.0 1023.0 1.4 19.7 19.7 0.0
24/05/18 09:05 19.9 54 10.3 2.2 4.3 25 34.8 0.0 1023.0 1.4 19.9 19.9 0.0
24/05/18 09:04 19.9 54 10.3 3.2 4.3 37 34.8 0.0 1023.0 4.3 19.9 19.9 0.0
24/05/18 09:03 19.9 55 10.6 1.4 4.0 79 34.8 0.0 1023.0 4.0 19.9 19.9 0.0
24/05/18 09:02 19.9 55 10.6 0.0 1.8 135 34.8 0.0 1023.0 0.0 19.9 19.9 0.0
24/05/18 09:02 19.7 56 10.7 0.0 1.8 135 34.8 0.0 1023.0 0.0 19.7 19.7 0.0
24/05/18 09:01 19.6 55 10.3 0.0 1.8 135 34.8 0.0 1023.0 0.0 19.6 19.6 0.0
24/05/18 09:00 19.6 55 10.3 1.4 1.8 135 34.8 0.0 1023.0 1.4 19.6 19.6 0.0
24/05/18 08:59 19.7 56 10.7 0.0 1.8 135 34.8 0.0 1023.0 1.8 19.7 19.7 0.0
24/05/18 08:58 20.0 59 11.7 0.0 1.8 135 34.8 0.0 1023.0 0.0 20.0 20.0 0.0
24/05/18 08:57 20.0 60 12.0 0.0 1.8 135 34.8 0.0 1023.0 0.0 20.0 20.0 0.0
24/05/18 08:56 19.8 60 11.8 0.0 1.8 135 34.8 0.0 1023.0 0.0 19.8 19.8 0.0
24/05/18 08:55 19.5 63 12.3 0.0 1.8 135 34.8 0.0 1023.0 0.0 19.5 19.5 0.0
24/05/18 08:54 19.5 63 12.3 0.0 1.8 135 34.8 0.0 1022.0 0.0 19.5 19.5 0.0
24/05/18 08:53 19.5 63 12.3 0.0 1.8 135 34.8 0.0 1022.0 0.0 19.5 19.5 0.0
24/05/18 08:52 19.6 62 12.1 0.0 1.8 135 34.8 0.0 1022.0 1.4 19.6 19.6 0.0
24/05/18 08:51 19.5 62 12.0 0.0 1.8 135 34.8 0.0 1022.0 1.8 19.5 19.5 0.0
24/05/18 08:50 19.5 63 12.3 0.0 1.8 135 34.8 0.0 1022.0 0.0 19.5 19.5 0.0
24/05/18 08:49 19.4 63 12.2 0.0 1.8 135 34.8 0.0 1022.0 0.0 19.4 19.4 0.0
24/05/18 08:48 19.3 64 12.3 0.0 1.8 135 34.8 0.0 1022.0 0.0 19.3 19.3 0.0
24/05/18 08:47 19.2 65 12.5 0.0 1.8 135 34.8 0.0 1022.0 0.0 19.2 19.2 0.0
24/05/18 08:46 19.2 66 12.7 0.0 1.8 135 34.8 0.0 1022.0 0.0 19.2 19.2 0.0
24/05/18 08:45 19.1 66 12.6 0.0 1.8 135 34.8 0.0 1022.0 0.0 19.1 19.1 0.0
24/05/18 08:44 19.0 66 12.5 0.0 1.8 135 34.8 0.0 1022.0 0.0 19.0 19.0 0.0
24/05/18 08:43 18.9 67 12.6 0.0 1.8 135 34.8 0.0 1022.0 1.8 18.9 18.9 0.0
24/05/18 08:42 18.8 68 12.8 0.0 0.0 0 34.8 0.0 1022.0 0.0 18.8 18.8 0.0
24/05/18 08:41 18.7 68 12.7 0.0 0.0 0 34.8 0.0 1022.0 0.0 18.7 18.7 0.0
24/05/18 08:40 18.6 68 12.6 0.0 0.0 0 34.8 0.0 1022.0 0.0 18.6 18.6 0.0
24/05/18 08:39 18.5 68 12.5 0.0 0.0 0 34.8 0.0 1022.0 0.0 18.5 18.5 0.0
24/05/18 08:38 18.5 69 12.7 0.0 0.0 0 34.8 0.0 1022.0 0.0 18.5 18.5 0.0
24/05/18 08:37 18.4 70 12.8 0.0 0.0 0 34.8 0.0 1022.0 0.0 18.4 18.4 0.0
24/05/18 08:36 18.4 70 12.8 0.0 0.0 0 34.8 0.0 1022.0 0.0 18.4 18.4 0.0
24/05/18 08:35 18.3 69 12.5 0.0 0.0 0 34.8 0.0 1022.0 0.0 18.3 18.3 0.0
24/05/18 08:34 18.3 71 12.9 0.0 0.0 0 34.8 0.0 1022.0 0.0 18.3 18.3 0.0
24/05/18 08:31 18.3 70 12.7 0.0 1.8 135 34.8 0.0 1022.0 0.0 18.3 18.3 0.0
24/05/18 08:30 18.2 71 12.9 0.0 1.8 135 34.8 0.0 1022.0 0.0 18.2 18.2 0.0
24/05/18 08:29 18.2 72 13.1 0.0 1.8 135 34.8 0.0 1022.0 0.0 18.1 18.2 0.0
24/05/18 08:28 18.0 73 13.1 0.0 1.8 135 34.8 0.0 1022.0 0.0 18.0 18.0 0.0
24/05/18 08:27 17.9 74 13.2 0.0 1.8 135 34.8 0.0 1022.0 0.0 17.9 17.9 0.0
24/05/18 08:26 17.8 74 13.1 0.0 1.8 135 34.8 0.0 1022.0 0.0 17.8 17.8 0.0
24/05/18 08:25 17.7 75 13.2 0.0 1.8 135 34.8 0.0 1022.0 0.0 17.7 17.7 0.0
24/05/18 08:24 17.5 75 13.0 0.0 1.8 135 34.8 0.0 1022.0 0.0 17.5 17.5 0.0
24/05/18 08:23 17.5 75 13.0 0.0 1.8 135 34.8 0.0 1022.0 0.0 17.5 17.5 0.0
24/05/18 08:22 17.3 75 12.8 0.0 1.8 135 34.8 0.0 1022.0 0.0 17.3 17.3 0.0
24/05/18 08:21 17.3 76 13.0 0.0 1.8 135 34.8 0.0 1022.0 1.8 17.2 17.3 0.0
24/05/18 08:20 17.1 76 12.8 0.0 0.0 0 34.8 0.0 1022.0 0.0 17.1 17.1 0.0
24/05/18 08:19 17.0 77 12.9 0.0 0.0 0 34.8 0.0 1022.0 0.0 17.0 17.0 0.0
24/05/18 08:18 17.0 77 12.9 0.0 0.0 0 34.8 0.0 1022.0 0.0 17.0 17.0 0.0
24/05/18 08:17 16.9 78 13.0 0.0 0.0 0 34.8 0.0 1022.0 0.0 16.9 16.9 0.0
24/05/18 08:16 16.8 78 12.9 0.0 0.0 0 34.8 0.0 1022.0 0.0 16.8 16.8 0.0
24/05/18 08:15 16.8 78 12.9 0.0 0.0 0 34.8 0.0 1022.0 0.0 16.8 16.8 0.0
24/05/18 08:14 16.7 79 13.0 0.0 0.0 0 34.8 0.0 1022.0 0.0 16.6 16.7 0.0
24/05/18 08:13 16.5 78 12.6 0.0 0.0 0 34.8 0.0 1022.0 0.0 16.5 16.5 0.0
24/05/18 08:12 16.4 79 12.7 0.0 0.0 0 34.8 0.0 1022.0 0.0 16.4 16.4 0.0
24/05/18 08:11 16.3 79 12.6 0.0 0.0 0 34.8 0.0 1022.0 0.0 16.3 16.3 0.0
24/05/18 08:10 16.1 80 12.6 0.0 0.0 0 34.8 0.0 1022.0 0.0 16.1 16.1 0.0
24/05/18 08:09 16.1 80 12.6 0.0 0.0 0 34.8 0.0 1022.0 0.0 16.1 16.1 0.0
24/05/18 08:08 16.0 80 12.5 0.0 0.0 0 34.8 0.0 1022.0 0.0 15.9 16.0 0.0
24/05/18 08:07 15.9 81 12.6 0.0 0.0 0 34.8 0.0 1022.0 0.0 15.9 15.9 0.0
24/05/18 08:06 15.8 81 12.5 0.0 0.0 0 34.8 0.0 1022.0 0.0 15.7 15.8 0.0
24/05/18 08:05 15.6 81 12.3 0.0 0.0 0 34.8 0.0 1022.0 0.0 15.6 15.6 0.0
24/05/18 08:04 15.5 82 12.4 0.0 0.0 0 34.8 0.0 1022.0 0.0 15.5 15.5 0.0
24/05/18 08:03 15.4 82 12.3 0.0 0.0 0 34.8 0.0 1022.0 0.0 15.4 15.4 0.0
24/05/18 08:02 15.4 82 12.3 0.0 0.0 0 34.8 0.0 1022.0 0.0 15.4 15.4 0.0
24/05/18 08:02 15.1 83 12.2 0.0 0.0 0 34.8 0.0 1022.0 0.0 15.1 15.1 0.0
24/05/18 08:01 15.1 83 12.2 0.0 0.0 0 34.8 0.0 1022.0 0.0 15.1 15.1 0.0
24/05/18 08:00 14.9 84 12.2 0.0 0.0 0 34.8 0.0 1022.0 0.0 14.9 14.9 0.0
24/05/18 07:59 14.8 84 12.1 0.0 0.0 0 34.8 0.0 1022.0 0.0 14.8 14.8 0.0
24/05/18 07:58 14.7 85 12.2 0.0 0.0 0 34.8 0.0 1022.0 0.0 14.7 14.7 0.0
24/05/18 07:57 14.6 85 12.1 0.0 0.0 0 34.8 0.0 1022.0 0.0 14.6 14.6 0.0
24/05/18 07:56 14.5 86 12.2 0.0 0.0 0 34.8 0.0 1022.0 0.0 14.5 14.5 0.0
24/05/18 07:55 14.4 86 12.1 0.0 0.0 0 34.8 0.0 1022.0 0.0 14.4 14.4 0.0
24/05/18 07:54 14.1 87 12.0 0.0 0.0 0 34.8 0.0 1022.0 0.0 14.1 14.1 0.0
24/05/18 07:53 14.0 87 11.9 0.0 0.0 0 34.8 0.0 1022.0 0.0 14.0 14.0 0.0
24/05/18 07:52 13.9 87 11.8 0.0 0.0 0 34.8 0.0 1022.0 0.0 13.9 13.9 0.0
24/05/18 07:51 13.7 87 11.6 0.0 0.0 0 34.8 0.0 1022.0 0.0 13.7 13.7 0.0
24/05/18 07:50 13.6 88 11.6 0.0 0.0 0 34.8 0.0 1022.0 0.0 13.6 13.6 0.0
24/05/18 07:49 13.5 88 11.6 0.0 0.0 0 34.8 0.0 1022.0 0.0 13.5 13.5 0.0
24/05/18 07:48 13.3 89 11.5 0.0 0.0 0 34.8 0.0 1022.0 0.0 13.3 13.3 0.0
24/05/18 07:47 13.0 90 11.4 0.0 0.0 0 34.8 0.0 1022.0 0.0 13.0 13.0 0.0
24/05/18 07:46 12.8 91 11.4 0.0 0.0 0 34.8 0.0 1022.0 0.0 12.8 12.8 0.0
24/05/18 07:45 12.6 91 11.2 0.0 0.0 0 34.8 0.0 1022.0 0.0 12.6 12.6 0.0
24/05/18 07:44 12.4 91 11.0 0.0 0.0 0 34.8 0.0 1022.0 0.0 12.4 12.4 0.0
24/05/18 07:43 12.2 91 10.8 0.0 0.0 0 34.8 0.0 1022.0 0.0 12.2 12.2 0.0
24/05/18 07:42 12.0 91 10.6 0.0 0.0 0 34.8 0.0 1022.0 0.0 12.0 12.0 0.0
24/05/18 07:41 11.7 92 10.4 0.0 0.0 0 34.8 0.0 1022.0 0.0 11.7 11.7 0.0
24/05/18 07:40 11.6 92 10.3 0.0 0.0 0 34.8 0.0 1022.0 0.0 11.6 11.6 0.0
24/05/18 07:39 11.3 92 10.0 0.0 0.0 0 34.8 0.0 1022.0 0.0 11.3 11.3 0.0
24/05/18 07:38 11.2 92 9.9 0.0 0.0 0 34.8 0.0 1022.0 0.0 11.2 11.2 0.0
24/05/18 07:37 11.2 92 9.9 0.0 0.0 0 34.8 0.0 1022.0 0.0 11.2 11.2 0.0
24/05/18 07:36 11.2 93 10.1 0.0 0.0 0 34.8 0.0 1022.0 0.0 11.2 11.2 0.0
24/05/18 07:35 11.2 93 10.1 0.0 0.0 0 34.8 0.0 1022.0 0.0 11.2 11.2 0.0
24/05/18 07:34 11.0 93 9.9 0.0 0.0 0 34.8 0.0 1022.0 0.0 11.0 11.0 0.0
24/05/18 07:33 10.9 94 10.0 0.0 0.0 0 34.8 0.0 1022.0 0.0 10.9 10.9 0.0
24/05/18 07:32 10.7 94 9.8 0.0 0.0 0 34.8 0.0 1022.0 0.0 10.7 10.7 0.0
24/05/18 07:31 10.6 95 9.8 0.0 0.0 0 34.8 0.0 1022.0 0.0 10.6 10.6 0.0
24/05/18 07:30 10.5 95 9.7 0.0 0.0 0 34.8 0.0 1022.0 0.0 10.5 10.5 0.0
24/05/18 07:29 10.4 95 9.6 0.0 0.0 0 34.8 0.0 1021.0 0.0 10.4 10.4 0.0
24/05/18 07:26 10.3 95 9.5 0.0 0.0 0 34.8 0.0 1022.0 0.0 10.3 10.3 0.0
24/05/18 07:25 10.1 96 9.5 0.0 0.0 0 34.8 0.0 1022.0 0.0 10.1 10.1 0.0
24/05/18 07:24 10.0 96 9.4 0.0 0.0 0 34.8 0.0 1022.0 0.0 10.0 10.0 0.0
24/05/18 07:23 9.8 96 9.2 0.0 0.0 0 34.8 0.0 1022.0 0.0 9.7 9.8 0.0
24/05/18 07:22 9.7 96 9.1 0.0 0.0 0 34.8 0.0 1022.0 0.0 9.7 9.7 0.0
24/05/18 07:21 9.6 97 9.1 0.0 0.0 0 34.8 0.0 1022.0 0.0 9.6 9.6 0.0
24/05/18 07:20 9.4 97 8.9 0.0 0.0 0 34.8 0.0 1022.0 0.0 9.4 9.4 0.0
24/05/18 07:19 9.3 98 9.0 0.0 0.0 0 34.8 0.0 1022.0 0.0 9.3 9.3 0.0
24/05/18 07:18 9.1 98 8.8 0.0 0.0 0 34.8 0.0 1022.0 0.0 9.1 9.1 0.0
24/05/18 07:17 8.9 98 8.6 0.0 0.0 0 34.8 0.0 1022.0 0.0 8.9 8.9 0.0
24/05/18 07:16 8.8 98 8.5 0.0 0.0 0 34.8 0.0 1022.0 0.0 8.8 8.8 0.0
24/05/18 07:15 8.6 98 8.3 0.0 0.0 0 34.8 0.0 1022.0 0.0 8.6 8.6 0.0
24/05/18 07:14 8.5 98 8.2 0.0 0.0 0 34.8 0.0 1022.0 0.0 8.5 8.5 0.0
24/05/18 07:13 8.4 98 8.1 0.0 0.0 0 34.8 0.0 1022.0 0.0 8.3 8.4 0.0
24/05/18 07:12 8.2 98 7.9 0.0 0.0 0 34.8 0.0 1022.0 0.0 8.2 8.2 0.0
24/05/18 07:11 8.2 98 7.9 0.0 0.0 0 34.8 0.0 1022.0 0.0 8.2 8.2 0.0
24/05/18 07:10 8.2 98 7.9 0.0 0.0 0 34.8 0.0 1022.0 0.0 8.2 8.2 0.0
24/05/18 07:09 8.1 98 7.8 0.0 0.0 0 34.8 0.0 1022.0 0.0 8.1 8.1 0.0
24/05/18 07:08 8.1 98 7.8 0.0 0.0 0 34.8 0.0 1022.0 0.0 8.1 8.1 0.0
24/05/18 07:07 7.9 98 7.6 0.0 0.0 0 34.8 0.0 1021.0 0.0 7.9 7.9 0.0
24/05/18 07:06 7.6 98 7.3 0.0 0.0 0 34.8 0.0 1021.0 0.0 7.4 7.6 0.0
24/05/18 07:05 7.1 98 6.8 0.0 0.0 0 34.8 0.0 1021.0 0.0 7.1 7.1 0.0
24/05/18 07:04 6.9 98 6.6 0.0 0.0 0 34.8 0.0 1021.0 0.0 6.9 6.9 0.0
24/05/18 07:03 6.6 98 6.3 0.0 0.0 0 34.8 0.0 1021.0 0.0 6.6 6.6 0.0
24/05/18 07:02 6.5 98 6.2 0.0 0.0 0 34.8 0.0 1021.0 0.0 6.5 6.5 0.0
24/05/18 07:02 6.4 98 6.1 0.0 0.0 0 34.8 0.0 1021.0 0.0 6.4 6.4 0.0
24/05/18 07:01 6.3 98 6.0 0.0 0.0 0 34.8 0.0 1021.0 0.0 6.3 6.3 0.0
24/05/18 07:00 6.2 98 5.9 0.0 0.0 0 34.8 0.0 1021.0 0.0 6.2 6.2 0.0
24/05/18 06:59 6.1 98 5.8 0.0 0.0 0 34.8 0.0 1021.0 0.0 6.1 6.1 0.0
24/05/18 06:58 6.0 98 5.7 0.0 0.0 0 34.8 0.0 1021.0 0.0 6.0 6.0 0.0
24/05/18 06:57 5.8 98 5.5 0.0 0.0 0 34.8 0.0 1021.0 0.0 5.8 5.8 0.0
24/05/18 06:56 5.8 98 5.5 0.0 0.0 0 34.8 0.0 1021.0 0.0 5.8 5.8 0.0
24/05/18 06:55 5.7 98 5.4 0.0 0.0 0 34.8 0.0 1021.0 0.0 5.7 5.7 0.0
24/05/18 06:54 5.7 98 5.4 0.0 0.0 0 34.8 0.0 1021.0 0.0 5.7 5.7 0.0
24/05/18 06:53 5.7 98 5.4 0.0 0.0 0 34.8 0.0 1021.0 0.0 5.7 5.7 0.0
24/05/18 06:52 5.7 98 5.4 0.0 0.0 0 34.8 0.0 1021.0 0.0 5.7 5.7 0.0
24/05/18 06:51 5.7 98 5.4 0.0 0.0 0 34.8 0.0 1021.0 0.0 5.7 5.7 0.0
24/05/18 06:50 5.7 98 5.4 0.0 0.0 0 34.8 0.0 1021.0 0.0 5.7 5.7 0.0
24/05/18 06:49 5.7 98 5.4 0.0 0.0 0 34.8 0.0 1021.0 0.0 5.7 5.7 0.0
24/05/18 06:48 5.7 98 5.4 0.0 0.0 0 34.8 0.0 1021.0 0.0 5.7 5.7 0.0
24/05/18 06:47 5.8 98 5.5 0.0 0.0 0 34.8 0.0 1021.0 0.0 5.8 5.8 0.0
24/05/18 06:46 5.7 98 5.4 0.0 0.0 0 34.8 0.0 1021.0 0.0 5.7 5.7 0.0
24/05/18 06:45 5.7 98 5.4 0.0 0.0 0 34.8 0.0 1021.0 0.0 5.7 5.7 0.0
24/05/18 06:44 5.7 98 5.4 0.0 0.0 0 34.8 0.0 1021.0 0.0 5.7 5.7 0.0
24/05/18 06:43 5.7 98 5.4 0.0 0.0 0 34.8 0.0 1021.0 0.0 5.7 5.7 0.0
24/05/18 06:42 5.7 98 5.4 0.0 0.0 0 34.8 0.0 1021.0 0.0 5.7 5.7 0.0
24/05/18 06:41 5.7 98 5.4 0.0 0.0 0 34.8 0.0 1021.0 0.0 5.7 5.7 0.0
24/05/18 06:40 5.7 98 5.4 0.0 0.0 0 34.8 0.0 1021.0 0.0 5.7 5.7 0.0
24/05/18 06:39 5.7 98 5.4 0.0 0.0 0 34.8 0.0 1021.0 0.0 5.7 5.7 0.0
24/05/18 06:38 5.7 98 5.4 0.0 0.0 0 34.8 0.0 1021.0 0.0 5.7 5.7 0.0
24/05/18 06:37 5.7 98 5.4 0.0 0.0 0 34.8 0.0 1021.0 0.0 5.7 5.7 0.0
24/05/18 06:36 5.7 98 5.4 0.0 0.0 0 34.8 0.0 1021.0 0.0 5.7 5.7 0.0
24/05/18 06:32 5.7 98 5.4 0.0 0.0 0 34.8 0.0 1021.0 0.0 5.7 5.7 0.0
24/05/18 06:31 5.8 98 5.5 0.0 0.0 0 34.8 0.0 1021.0 0.0 5.8 5.8 0.0
24/05/18 06:30 5.8 98 5.5 0.0 0.0 0 34.8 0.0 1021.0 0.0 5.8 5.8 0.0
24/05/18 06:29 5.8 98 5.5 0.0 0.0 0 34.8 0.0 1021.0 0.0 5.8 5.8 0.0
24/05/18 06:28 5.8 98 5.5 0.0 0.0 0 34.8 0.0 1021.0 0.0 5.8 5.8 0.0
24/05/18 06:27 5.8 98 5.5 0.0 0.0 0 34.8 0.0 1021.0 0.0 5.8 5.8 0.0
24/05/18 06:26 5.8 98 5.5 0.0 0.0 0 34.8 0.0 1021.0 0.0 5.8 5.8 0.0
24/05/18 06:25 5.8 98 5.5 0.0 0.0 0 34.8 0.0 1021.0 0.0 5.8 5.8 0.0
24/05/18 06:24 5.8 98 5.5 0.0 0.0 0 34.8 0.0 1021.0 0.0 5.8 5.8 0.0
24/05/18 06:23 5.8 98 5.5 0.0 0.0 0 34.8 0.0 1021.0 0.0 5.8 5.8 0.0
24/05/18 06:22 5.8 98 5.5 0.0 0.0 0 34.8 0.0 1021.0 0.0 5.8 5.8 0.0
24/05/18 06:21 5.8 98 5.5 0.0 0.0 0 34.8 0.0 1021.0 0.0 5.8 5.8 0.0
24/05/18 06:20 5.9 98 5.6 0.0 0.0 0 34.8 0.0 1021.0 0.0 5.9 5.9 0.0
24/05/18 06:19 5.9 98 5.6 0.0 0.0 0 34.8 0.0 1021.0 0.0 5.9 5.9 0.0
24/05/18 06:18 5.9 98 5.6 0.0 0.0 0 34.8 0.0 1021.0 0.0 5.9 5.9 0.0
24/05/18 06:17 5.9 98 5.6 0.0 0.0 0 34.8 0.0 1021.0 0.0 5.9 5.9 0.0
24/05/18 06:16 5.9 98 5.6 0.0 0.0 0 34.8 0.0 1021.0 0.0 5.9 5.9 0.0
24/05/18 06:15 5.9 98 5.6 0.0 0.0 0 34.8 0.0 1021.0 0.0 5.9 5.9 0.0
24/05/18 06:14 5.9 98 5.6 0.0 0.0 0 34.8 0.0 1021.0 0.0 5.9 5.9 0.0
24/05/18 06:13 5.9 98 5.6 0.0 0.0 0 34.8 0.0 1021.0 0.0 5.9 5.9 0.0
24/05/18 06:12 5.9 98 5.6 0.0 0.0 0 34.8 0.0 1021.0 0.0 5.9 5.9 0.0
24/05/18 06:11 5.9 98 5.6 0.0 0.0 0 34.8 0.0 1021.0 0.0 5.9 5.9 0.0
24/05/18 06:10 5.9 98 5.6 0.0 0.0 0 34.8 0.0 1021.0 0.0 5.9 5.9 0.0
24/05/18 06:09 5.9 98 5.6 0.0 0.0 0 34.8 0.0 1021.0 0.0 5.9 5.9 0.0
24/05/18 06:08 6.0 98 5.7 0.0 0.0 0 34.8 0.0 1021.0 0.0 6.0 6.0 0.0
24/05/18 06:07 6.0 98 5.7 0.0 0.0 0 34.8 0.0 1021.0 0.0 6.0 6.0 0.0
24/05/18 06:06 6.0 98 5.7 0.0 0.0 0 34.8 0.0 1021.0 0.0 6.0 6.0 0.0
24/05/18 06:05 6.0 98 5.7 0.0 0.0 0 34.8 0.0 1021.0 0.0 6.0 6.0 0.0
24/05/18 06:04 6.0 98 5.7 0.0 0.0 0 34.8 0.0 1021.0 0.0 6.0 6.0 0.0
24/05/18 06:03 6.0 98 5.7 0.0 0.0 0 34.8 0.0 1021.0 0.0 6.0 6.0 0.0
24/05/18 06:02 6.0 98 5.7 0.0 0.0 0 34.8 0.0 1021.0 0.0 6.0 6.0 0.0
24/05/18 06:01 6.0 98 5.7 0.0 0.0 0 34.8 0.0 1021.0 0.0 6.0 6.0 0.0
24/05/18 06:00 6.0 98 5.7 0.0 0.0 0 34.8 0.0 1021.0 0.0 6.0 6.0 0.0
24/05/18 05:59 6.0 98 5.7 0.0 0.0 0 34.8 0.0 1021.0 0.0 6.0 6.0 0.0
24/05/18 05:58 6.0 98 5.7 0.0 0.0 0 34.8 0.0 1021.0 0.0 6.0 6.0 0.0
24/05/18 05:57 6.0 98 5.7 0.0 0.0 0 34.8 0.0 1021.0 0.0 6.0 6.0 0.0
24/05/18 05:56 6.0 98 5.7 0.0 0.0 0 34.8 0.0 1021.0 0.0 6.0 6.0 0.0
24/05/18 05:55 6.0 98 5.7 0.0 0.0 0 34.8 0.0 1021.0 0.0 6.0 6.0 0.0
24/05/18 05:54 6.0 98 5.7 0.0 0.0 0 34.8 0.0 1021.0 0.0 6.0 6.0 0.0
24/05/18 05:53 5.9 98 5.6 0.0 0.0 0 34.8 0.0 1021.0 0.0 5.9 5.9 0.0
24/05/18 05:52 5.8 98 5.5 0.0 0.0 0 34.8 0.0 1021.0 0.0 5.8 5.8 0.0
24/05/18 05:51 5.8 98 5.5 0.0 0.0 0 34.8 0.0 1021.0 0.0 5.8 5.8 0.0
24/05/18 05:50 5.8 98 5.5 0.0 0.0 0 34.8 0.0 1021.0 0.0 5.8 5.8 0.0
24/05/18 05:49 5.8 98 5.5 0.0 0.0 0 34.8 0.0 1021.0 0.0 5.8 5.8 0.0
24/05/18 05:48 5.8 98 5.5 0.0 0.0 0 34.8 0.0 1021.0 0.0 5.8 5.8 0.0
24/05/18 05:47 5.7 98 5.4 0.0 0.0 0 34.8 0.0 1021.0 0.0 5.7 5.7 0.0
24/05/18 05:46 5.7 98 5.4 0.0 0.0 0 34.8 0.0 1021.0 0.0 5.7 5.7 0.0
24/05/18 05:45 5.7 98 5.4 0.0 0.0 0 34.8 0.0 1021.0 0.0 5.7 5.7 0.0
24/05/18 05:44 5.6 98 5.3 0.0 0.0 0 34.8 0.0 1021.0 0.0 5.6 5.6 0.0
24/05/18 05:43 5.6 98 5.3 0.0 0.0 0 34.8 0.0 1021.0 0.0 5.6 5.6 0.0
24/05/18 05:42 5.5 98 5.2 0.0 0.0 0 34.8 0.0 1021.0 0.0 5.5 5.5 0.0
24/05/18 05:41 5.4 98 5.1 0.0 0.0 0 34.8 0.0 1021.0 0.0 5.4 5.4 0.0
24/05/18 05:40 5.4 98 5.1 0.0 0.0 0 34.8 0.0 1021.0 0.0 5.4 5.4 0.0
24/05/18 05:39 5.4 98 5.1 0.0 0.0 0 34.8 0.0 1020.0 0.0 5.4 5.4 0.0
24/05/18 05:38 5.3 98 5.0 0.0 0.0 0 34.8 0.0 1020.0 0.0 5.3 5.3 0.0
24/05/18 05:37 5.3 98 5.0 0.0 0.0 0 34.8 0.0 1020.0 0.0 5.3 5.3 0.0
24/05/18 05:36 5.3 98 5.0 0.0 0.0 0 34.8 0.0 1020.0 0.0 5.3 5.3 0.0
24/05/18 05:35 5.3 98 5.0 0.0 0.0 0 34.8 0.0 1020.0 0.0 5.3 5.3 0.0
24/05/18 05:34 5.3 98 5.0 0.0 0.0 0 34.8 0.0 1020.0 0.0 5.3 5.3 0.0
24/05/18 05:33 5.2 98 4.9 0.0 0.0 0 34.8 0.0 1020.0 0.0 5.2 5.2 0.0
24/05/18 05:32 5.2 98 4.9 0.0 0.0 0 34.8 0.0 1020.0 0.0 5.2 5.2 0.0
24/05/18 05:31 5.2 98 4.9 0.0 0.0 0 34.8 0.0 1020.0 0.0 5.2 5.2 0.0
24/05/18 05:30 5.2 98 4.9 0.0 0.0 0 34.8 0.0 1020.0 0.0 5.2 5.2 0.0
24/05/18 05:29 5.2 98 4.9 0.0 0.0 0 34.8 0.0 1020.0 0.0 5.2 5.2 0.0
24/05/18 05:28 5.1 98 4.8 0.0 0.0 0 34.8 0.0 1020.0 0.0 5.1 5.1 0.0
24/05/18 05:27 5.1 98 4.8 0.0 0.0 0 34.8 0.0 1020.0 0.0 5.1 5.1 0.0
24/05/18 05:26 5.1 98 4.8 0.0 0.0 0 34.8 0.0 1020.0 0.0 5.1 5.1 0.0
24/05/18 05:25 5.1 98 4.8 0.0 0.0 0 34.8 0.0 1020.0 0.0 5.1 5.1 0.0
24/05/18 05:24 5.1 98 4.8 0.0 0.0 0 34.8 0.0 1021.0 0.0 5.1 5.1 0.0
24/05/18 05:23 5.0 98 4.7 0.0 0.0 0 34.8 0.0 1021.0 0.0 5.0 5.0 0.0
24/05/18 05:22 5.0 98 4.7 0.0 0.0 0 34.8 0.0 1021.0 0.0 5.0 5.0 0.0
24/05/18 05:21 5.0 98 4.7 0.0 0.0 0 34.8 0.0 1021.0 0.0 5.0 5.0 0.0
24/05/18 05:20 4.9 98 4.6 0.0 0.0 0 34.8 0.0 1021.0 0.0 4.9 4.9 0.0
24/05/18 05:19 4.9 98 4.6 0.0 0.0 0 34.8 0.0 1021.0 0.0 4.9 4.9 0.0
24/05/18 05:18 4.8 98 4.5 0.0 0.0 0 34.8 0.0 1021.0 0.0 4.8 4.8 0.0
24/05/18 05:17 4.7 98 4.4 0.0 0.0 0 34.8 0.0 1021.0 0.0 4.7 4.7 0.0
24/05/18 05:16 4.7 98 4.4 0.0 0.0 0 34.8 0.0 1021.0 0.0 4.7 4.7 0.0
24/05/18 05:15 4.7 98 4.4 0.0 0.0 0 34.8 0.0 1021.0 0.0 4.7 4.7 0.0
24/05/18 05:14 4.7 98 4.4 0.0 0.0 0 34.8 0.0 1021.0 0.0 4.7 4.7 0.0
24/05/18 05:13 4.7 98 4.4 0.0 0.0 0 34.8 0.0 1021.0 0.0 4.7 4.7 0.0
24/05/18 05:12 4.7 98 4.4 0.0 0.0 0 34.8 0.0 1021.0 0.0 4.7 4.7 0.0
24/05/18 05:11 4.7 98 4.4 0.0 0.0 0 34.8 0.0 1021.0 0.0 4.7 4.7 0.0
24/05/18 05:10 4.7 98 4.4 0.0 0.0 0 34.8 0.0 1021.0 0.0 4.7 4.7 0.0
24/05/18 05:09 4.6 98 4.3 0.0 0.0 0 34.8 0.0 1021.0 0.0 4.6 4.6 0.0
24/05/18 05:08 4.6 98 4.3 0.0 0.0 0 34.8 0.0 1021.0 0.0 4.6 4.6 0.0
24/05/18 05:07 4.6 98 4.3 0.0 0.0 0 34.8 0.0 1021.0 0.0 4.6 4.6 0.0
24/05/18 05:06 4.6 98 4.3 0.0 0.0 0 34.8 0.0 1021.0 0.0 4.6 4.6 0.0
24/05/18 05:05 4.6 98 4.3 0.0 0.0 0 34.8 0.0 1021.0 0.0 4.6 4.6 0.0
24/05/18 05:04 4.6 98 4.3 0.0 0.0 0 34.8 0.0 1021.0 0.0 4.6 4.6 0.0
24/05/18 05:02 4.6 98 4.3 0.0 0.0 0 34.8 0.0 1021.0 0.0 4.6 4.6 0.0
24/05/18 05:01 4.6 98 4.3 0.0 0.0 0 34.8 0.0 1021.0 0.0 4.6 4.6 0.0
24/05/18 05:00 4.6 98 4.3 0.0 0.0 0 34.8 0.0 1021.0 0.0 4.6 4.6 0.0
24/05/18 04:59 4.6 98 4.3 0.0 0.0 0 34.8 0.0 1021.0 0.0 4.6 4.6 0.0
24/05/18 04:58 4.7 98 4.4 0.0 0.0 0 34.8 0.0 1021.0 0.0 4.7 4.7 0.0
24/05/18 04:57 4.7 98 4.4 0.0 0.0 0 34.8 0.0 1021.0 0.0 4.7 4.7 0.0
24/05/18 04:56 4.7 98 4.4 0.0 0.0 0 34.8 0.0 1021.0 0.0 4.7 4.7 0.0
24/05/18 04:55 4.7 98 4.4 0.0 0.0 0 34.8 0.0 1021.0 0.0 4.7 4.7 0.0
24/05/18 04:54 4.8 98 4.5 0.0 0.0 0 34.8 0.0 1022.0 0.0 4.8 4.8 0.0
24/05/18 04:53 4.7 98 4.4 0.0 0.0 0 34.8 0.0 1022.0 0.0 4.7 4.7 0.0
24/05/18 04:52 4.7 98 4.4 0.0 0.0 0 34.8 0.0 1022.0 0.0 4.7 4.7 0.0
24/05/18 04:51 4.8 98 4.5 0.0 0.0 0 34.8 0.0 1022.0 0.0 4.8 4.8 0.0
24/05/18 04:50 4.8 98 4.5 0.0 0.0 0 34.8 0.0 1022.0 0.0 4.8 4.8 0.0
24/05/18 04:49 4.7 98 4.4 0.0 0.0 0 34.8 0.0 1022.0 0.0 4.7 4.7 0.0
24/05/18 04:48 4.7 98 4.4 0.0 0.0 0 34.8 0.0 1022.0 0.0 4.7 4.7 0.0
24/05/18 04:47 4.7 98 4.4 0.0 0.0 0 34.8 0.0 1022.0 0.0 4.7 4.7 0.0
24/05/18 04:46 4.7 98 4.4 0.0 0.0 0 34.8 0.0 1022.0 0.0 4.7 4.7 0.0
24/05/18 04:45 4.7 98 4.4 0.0 0.0 0 34.8 0.0 1022.0 0.0 4.7 4.7 0.0
24/05/18 04:44 4.7 98 4.4 0.0 0.0 0 34.8 0.0 1022.0 0.0 4.7 4.7 0.0
24/05/18 04:43 4.6 98 4.3 0.0 0.0 0 34.8 0.0 1022.0 0.0 4.6 4.6 0.0
24/05/18 04:42 4.6 98 4.3 0.0 0.0 0 34.8 0.0 1022.0 0.0 4.6 4.6 0.0
24/05/18 04:41 4.6 98 4.3 0.0 0.0 0 34.8 0.0 1022.0 0.0 4.6 4.6 0.0
24/05/18 04:40 4.6 98 4.3 0.0 0.0 0 34.8 0.0 1022.0 0.0 4.6 4.6 0.0
24/05/18 04:39 4.6 98 4.3 0.0 0.0 0 34.8 0.0 1022.0 0.0 4.6 4.6 0.0
24/05/18 04:38 4.5 98 4.2 0.0 0.0 0 34.8 0.0 1022.0 0.0 4.5 4.5 0.0
24/05/18 04:37 4.5 98 4.2 0.0 0.0 0 34.8 0.0 1022.0 0.0 4.5 4.5 0.0
24/05/18 04:36 4.5 98 4.2 0.0 0.0 0 34.8 0.0 1022.0 0.0 4.5 4.5 0.0
24/05/18 04:35 4.5 98 4.2 0.0 0.0 0 34.8 0.0 1022.0 0.0 4.5 4.5 0.0
24/05/18 04:34 4.5 98 4.2 0.0 0.0 0 34.8 0.0 1022.0 0.0 4.5 4.5 0.0
24/05/18 04:33 4.5 98 4.2 0.0 0.0 0 34.8 0.0 1022.0 0.0 4.5 4.5 0.0
24/05/18 04:32 4.5 98 4.2 0.0 0.0 0 34.8 0.0 1022.0 0.0 4.5 4.5 0.0
24/05/18 04:31 4.5 98 4.2 0.0 0.0 0 34.8 0.0 1022.0 0.0 4.5 4.5 0.0
24/05/18 04:30 4.5 98 4.2 0.0 0.0 0 34.8 0.0 1022.0 0.0 4.5 4.5 0.0
24/05/18 04:29 4.5 98 4.2 0.0 0.0 0 34.8 0.0 1022.0 0.0 4.5 4.5 0.0
24/05/18 04:28 4.5 98 4.2 0.0 0.0 0 34.8 0.0 1022.0 0.0 4.5 4.5 0.0
24/05/18 04:27 4.5 98 4.2 0.0 0.0 0 34.8 0.0 1022.0 0.0 4.5 4.5 0.0
24/05/18 04:26 4.5 98 4.2 0.0 0.0 0 34.8 0.0 1022.0 0.0 4.5 4.5 0.0
24/05/18 04:25 4.5 98 4.2 0.0 0.0 0 34.8 0.0 1022.0 0.0 4.5 4.5 0.0
24/05/18 04:24 4.5 98 4.2 0.0 0.0 0 34.8 0.0 1021.0 0.0 4.5 4.5 0.0
24/05/18 04:23 4.5 98 4.2 0.0 0.0 0 34.8 0.0 1021.0 0.0 4.5 4.5 0.0
24/05/18 04:22 4.5 98 4.2 0.0 0.0 0 34.8 0.0 1021.0 0.0 4.5 4.5 0.0
24/05/18 04:21 4.5 98 4.2 0.0 0.0 0 34.8 0.0 1021.0 0.0 4.5 4.5 0.0
24/05/18 04:20 4.5 98 4.2 0.0 0.0 0 34.8 0.0 1021.0 0.0 4.5 4.5 0.0
24/05/18 04:19 4.5 98 4.2 0.0 0.0 0 34.8 0.0 1021.0 0.0 4.5 4.5 0.0
24/05/18 04:18 4.5 98 4.2 0.0 0.0 0 34.8 0.0 1021.0 0.0 4.5 4.5 0.0
24/05/18 04:17 4.5 98 4.2 0.0 0.0 0 34.8 0.0 1021.0 0.0 4.5 4.5 0.0
24/05/18 04:16 4.5 98 4.2 0.0 0.0 0 34.8 0.0 1021.0 0.0 4.5 4.5 0.0
24/05/18 04:15 4.5 98 4.2 0.0 0.0 0 34.8 0.0 1021.0 0.0 4.5 4.5 0.0
24/05/18 04:14 4.6 98 4.3 0.0 0.0 0 34.8 0.0 1021.0 0.0 4.6 4.6 0.0
24/05/18 04:13 4.6 98 4.3 0.0 0.0 0 34.8 0.0 1021.0 0.0 4.6 4.6 0.0
24/05/18 04:12 4.6 98 4.3 0.0 0.0 0 34.8 0.0 1021.0 0.0 4.6 4.6 0.0
24/05/18 04:11 4.6 98 4.3 0.0 0.0 0 34.8 0.0 1021.0 0.0 4.6 4.6 0.0
24/05/18 04:10 4.7 98 4.4 0.0 0.0 0 34.8 0.0 1021.0 0.0 4.7 4.7 0.0
24/05/18 04:09 4.7 98 4.4 0.0 0.0 0 34.8 0.0 1021.0 0.0 4.7 4.7 0.0
24/05/18 04:08 4.7 98 4.4 0.0 0.0 0 34.8 0.0 1021.0 0.0 4.7 4.7 0.0
24/05/18 04:07 4.8 98 4.5 0.0 0.0 0 34.8 0.0 1021.0 0.0 4.8 4.8 0.0
24/05/18 04:06 4.8 98 4.5 0.0 0.0 0 34.8 0.0 1021.0 0.0 4.8 4.8 0.0
24/05/18 04:05 4.8 98 4.5 0.0 0.0 0 34.8 0.0 1021.0 0.0 4.8 4.8 0.0
24/05/18 04:04 4.9 98 4.6 0.0 0.0 0 34.8 0.0 1021.0 0.0 4.9 4.9 0.0
24/05/18 04:02 4.9 98 4.6 0.0 0.0 0 34.8 0.0 1021.0 0.0 4.9 4.9 0.0
24/05/18 04:01 4.9 98 4.6 0.0 0.0 0 34.8 0.0 1021.0 0.0 4.9 4.9 0.0
24/05/18 04:00 4.9 98 4.6 0.0 0.0 0 34.8 0.0 1021.0 0.0 4.9 4.9 0.0
24/05/18 03:59 4.9 98 4.6 0.0 0.0 0 34.8 0.0 1021.0 0.0 4.9 4.9 0.0
24/05/18 03:58 4.9 98 4.6 0.0 0.0 0 34.8 0.0 1021.0 0.0 4.9 4.9 0.0
24/05/18 03:57 5.0 98 4.7 0.0 0.0 0 34.8 0.0 1021.0 0.0 5.0 5.0 0.0
24/05/18 03:56 5.0 98 4.7 0.0 0.0 0 34.8 0.0 1021.0 0.0 5.0 5.0 0.0
24/05/18 03:55 5.0 98 4.7 0.0 0.0 0 34.8 0.0 1021.0 0.0 5.0 5.0 0.0
24/05/18 03:54 4.9 98 4.6 0.0 0.0 0 34.8 0.0 1021.0 0.0 4.9 4.9 0.0
24/05/18 03:53 4.9 98 4.6 0.0 0.0 0 34.8 0.0 1021.0 0.0 4.9 4.9 0.0
24/05/18 03:52 4.9 98 4.6 0.0 0.0 0 34.8 0.0 1021.0 0.0 4.9 4.9 0.0
24/05/18 03:51 4.9 98 4.6 0.0 0.0 0 34.8 0.0 1021.0 0.0 4.9 4.9 0.0
24/05/18 03:50 5.0 98 4.7 0.0 0.0 0 34.8 0.0 1021.0 0.0 5.0 5.0 0.0
24/05/18 03:49 5.0 98 4.7 0.0 0.0 0 34.8 0.0 1021.0 0.0 5.0 5.0 0.0
24/05/18 03:48 5.0 98 4.7 0.0 0.0 0 34.8 0.0 1021.0 0.0 5.0 5.0 0.0
24/05/18 03:47 5.0 98 4.7 0.0 0.0 0 34.8 0.0 1021.0 0.0 5.0 5.0 0.0
24/05/18 03:46 5.0 98 4.7 0.0 0.0 0 34.8 0.0 1021.0 0.0 5.0 5.0 0.0
24/05/18 03:45 5.0 98 4.7 0.0 0.0 0 34.8 0.0 1021.0 0.0 5.0 5.0 0.0
24/05/18 03:44 4.9 98 4.6 0.0 0.0 0 34.8 0.0 1021.0 0.0 4.9 4.9 0.0
24/05/18 03:43 4.8 98 4.5 0.0 0.0 0 34.8 0.0 1021.0 0.0 4.8 4.8 0.0
24/05/18 03:42 4.7 98 4.4 0.0 0.0 0 34.8 0.0 1021.0 0.0 4.7 4.7 0.0
24/05/18 03:41 4.7 98 4.4 0.0 0.0 0 34.8 0.0 1021.0 0.0 4.7 4.7 0.0
24/05/18 03:40 4.7 98 4.4 0.0 0.0 0 34.8 0.0 1021.0 0.0 4.7 4.7 0.0
24/05/18 03:39 4.6 98 4.3 0.0 0.0 0 34.8 0.0 1022.0 0.0 4.6 4.6 0.0
24/05/18 03:38 4.6 98 4.3 0.0 0.0 0 34.8 0.0 1022.0 0.0 4.6 4.6 0.0
24/05/18 03:37 4.6 98 4.3 0.0 0.0 0 34.8 0.0 1022.0 0.0 4.6 4.6 0.0
24/05/18 03:36 4.6 98 4.3 0.0 0.0 0 34.8 0.0 1022.0 0.0 4.6 4.6 0.0
24/05/18 03:35 4.6 98 4.3 0.0 0.0 0 34.8 0.0 1022.0 0.0 4.6 4.6 0.0
24/05/18 03:34 4.5 98 4.2 0.0 0.0 0 34.8 0.0 1022.0 0.0 4.5 4.5 0.0
24/05/18 03:33 4.5 98 4.2 0.0 0.0 0 34.8 0.0 1022.0 0.0 4.5 4.5 0.0
24/05/18 03:32 4.5 98 4.2 0.0 0.0 0 34.8 0.0 1022.0 0.0 4.5 4.5 0.0
24/05/18 03:31 4.5 98 4.2 0.0 0.0 0 34.8 0.0 1022.0 0.0 4.5 4.5 0.0
24/05/18 03:30 4.4 98 4.1 0.0 0.0 0 34.8 0.0 1022.0 0.0 4.4 4.4 0.0
24/05/18 03:29 4.4 98 4.1 0.0 0.0 0 34.8 0.0 1022.0 0.0 4.4 4.4 0.0
24/05/18 03:28 4.4 98 4.1 0.0 0.0 0 34.8 0.0 1022.0 0.0 4.4 4.4 0.0
24/05/18 03:27 4.4 98 4.1 0.0 0.0 0 34.8 0.0 1022.0 0.0 4.4 4.4 0.0
24/05/18 03:26 4.4 98 4.1 0.0 0.0 0 34.8 0.0 1022.0 0.0 4.4 4.4 0.0
24/05/18 03:25 4.4 98 4.1 0.0 0.0 0 34.8 0.0 1022.0 0.0 4.4 4.4 0.0
24/05/18 03:24 4.4 98 4.1 0.0 0.0 0 34.8 0.0 1020.0 0.0 4.4 4.4 0.0
24/05/18 03:23 4.4 98 4.1 0.0 0.0 0 34.8 0.0 1020.0 0.0 4.4 4.4 0.0
24/05/18 03:22 4.4 98 4.1 0.0 0.0 0 34.8 0.0 1020.0 0.0 4.4 4.4 0.0
24/05/18 03:21 4.4 98 4.1 0.0 0.0 0 34.8 0.0 1020.0 0.0 4.4 4.4 0.0
24/05/18 03:20 4.4 98 4.1 0.0 0.0 0 34.8 0.0 1020.0 0.0 4.4 4.4 0.0
24/05/18 03:19 4.4 98 4.1 0.0 0.0 0 34.8 0.0 1020.0 0.0 4.4 4.4 0.0
24/05/18 03:18 4.4 98 4.1 0.0 0.0 0 34.8 0.0 1020.0 0.0 4.4 4.4 0.0
24/05/18 03:17 4.4 98 4.1 0.0 0.0 0 34.8 0.0 1020.0 0.0 4.4 4.4 0.0
24/05/18 03:16 4.4 97 4.0 0.0 0.0 0 34.8 0.0 1020.0 0.0 4.4 4.4 0.0
24/05/18 03:15 4.4 97 4.0 0.0 0.0 0 34.8 0.0 1020.0 0.0 4.4 4.4 0.0
24/05/18 03:14 4.4 97 4.0 0.0 0.0 0 34.8 0.0 1020.0 0.0 4.4 4.4 0.0
24/05/18 03:13 4.4 97 4.0 0.0 0.0 0 34.8 0.0 1020.0 0.0 4.4 4.4 0.0
24/05/18 03:12 4.4 97 4.0 0.0 0.0 0 34.8 0.0 1020.0 0.0 4.4 4.4 0.0
24/05/18 03:10 4.4 97 4.0 0.0 0.0 0 34.8 0.0 1020.0 0.0 4.4 4.4 0.0
24/05/18 03:09 4.4 97 4.0 0.0 0.0 0 34.8 0.0 1021.0 0.0 4.4 4.4 0.0
24/05/18 03:08 4.4 97 4.0 0.0 0.0 0 34.8 0.0 1021.0 0.0 4.4 4.4 0.0
24/05/18 03:07 4.4 97 4.0 0.0 0.0 0 34.8 0.0 1021.0 0.0 4.4 4.4 0.0
24/05/18 03:06 4.4 97 4.0 0.0 0.0 0 34.8 0.0 1021.0 0.0 4.4 4.4 0.0
24/05/18 03:05 4.4 97 4.0 0.0 0.0 0 34.8 0.0 1021.0 0.0 4.4 4.4 0.0
24/05/18 03:04 4.4 97 4.0 0.0 0.0 0 34.8 0.0 1021.0 0.0 4.4 4.4 0.0
24/05/18 03:03 4.4 97 4.0 0.0 0.0 0 34.8 0.0 1021.0 0.0 4.4 4.4 0.0
24/05/18 03:02 4.4 97 4.0 0.0 0.0 0 34.8 0.0 1021.0 0.0 4.4 4.4 0.0
24/05/18 03:01 4.4 97 4.0 0.0 0.0 0 34.8 0.0 1021.0 0.0 4.4 4.4 0.0
24/05/18 03:00 4.4 97 4.0 0.0 0.0 0 34.8 0.0 1021.0 0.0 4.4 4.4 0.0
24/05/18 02:59 4.4 97 4.0 0.0 0.0 0 34.8 0.0 1021.0 0.0 4.4 4.4 0.0
24/05/18 02:58 4.4 97 4.0 0.0 0.0 0 34.8 0.0 1021.0 0.0 4.4 4.4 0.0
24/05/18 02:56 4.4 97 4.0 0.0 0.0 0 34.8 0.0 1021.0 0.0 4.4 4.4 0.0
24/05/18 02:55 4.4 97 4.0 0.0 0.0 0 34.8 0.0 1021.0 0.0 4.4 4.4 0.0
24/05/18 02:54 4.4 97 4.0 0.0 0.0 0 34.8 0.0 1020.0 0.0 4.4 4.4 0.0
24/05/18 02:53 4.4 97 4.0 0.0 0.0 0 34.8 0.0 1020.0 0.0 4.4 4.4 0.0
24/05/18 02:52 4.4 97 4.0 0.0 0.0 0 34.8 0.0 1020.0 0.0 4.4 4.4 0.0
24/05/18 02:51 4.4 97 4.0 0.0 0.0 0 34.8 0.0 1020.0 0.0 4.4 4.4 0.0
24/05/18 02:50 4.5 97 4.1 0.0 0.0 0 34.8 0.0 1020.0 0.0 4.5 4.5 0.0
24/05/18 02:49 4.5 97 4.1 0.0 0.0 0 34.8 0.0 1020.0 0.0 4.5 4.5 0.0
24/05/18 02:48 4.6 97 4.2 0.0 0.0 0 34.8 0.0 1020.0 0.0 4.6 4.6 0.0
24/05/18 02:47 4.6 97 4.2 0.0 0.0 0 34.8 0.0 1020.0 0.0 4.6 4.6 0.0
24/05/18 02:46 4.6 97 4.2 0.0 0.0 0 34.8 0.0 1020.0 0.0 4.6 4.6 0.0
24/05/18 02:45 4.6 97 4.2 0.0 0.0 0 34.8 0.0 1020.0 0.0 4.6 4.6 0.0
24/05/18 02:44 4.6 97 4.2 0.0 0.0 0 34.8 0.0 1020.0 0.0 4.6 4.6 0.0
24/05/18 02:43 4.7 97 4.3 0.0 0.0 0 34.8 0.0 1020.0 0.0 4.7 4.7 0.0
24/05/18 02:42 4.7 97 4.3 0.0 0.0 0 34.8 0.0 1020.0 0.0 4.7 4.7 0.0
24/05/18 02:41 4.7 97 4.3 0.0 0.0 0 34.8 0.0 1020.0 0.0 4.7 4.7 0.0
24/05/18 02:40 4.7 97 4.3 0.0 0.0 0 34.8 0.0 1020.0 0.0 4.7 4.7 0.0
24/05/18 02:39 4.7 97 4.3 0.0 0.0 0 34.8 0.0 1021.0 0.0 4.7 4.7 0.0
24/05/18 02:37 4.7 97 4.3 0.0 0.0 0 34.8 0.0 1021.0 0.0 4.7 4.7 0.0
24/05/18 02:36 4.6 97 4.2 0.0 0.0 0 34.8 0.0 1021.0 0.0 4.6 4.6 0.0
24/05/18 02:34 4.5 97 4.1 0.0 0.0 0 34.8 0.0 1021.0 0.0 4.5 4.5 0.0
24/05/18 02:33 4.4 97 4.0 0.0 0.0 0 34.8 0.0 1021.0 0.0 4.4 4.4 0.0
24/05/18 02:32 4.4 97 4.0 0.0 0.0 0 34.8 0.0 1021.0 0.0 4.4 4.4 0.0
24/05/18 02:31 4.5 97 4.1 0.0 0.0 0 34.8 0.0 1021.0 0.0 4.5 4.5 0.0
24/05/18 02:30 4.5 97 4.1 0.0 0.0 0 34.8 0.0 1021.0 0.0 4.5 4.5 0.0
24/05/18 02:29 4.5 97 4.1 0.0 0.0 0 34.8 0.0 1021.0 0.0 4.5 4.5 0.0
24/05/18 02:28 4.5 97 4.1 0.0 0.0 0 34.8 0.0 1021.0 0.0 4.5 4.5 0.0
24/05/18 02:27 4.5 97 4.1 0.0 0.0 0 34.8 0.0 1021.0 0.0 4.5 4.5 0.0
24/05/18 02:26 4.5 97 4.1 0.0 0.0 0 34.8 0.0 1021.0 0.0 4.5 4.5 0.0
24/05/18 02:25 4.6 97 4.2 0.0 0.0 0 34.8 0.0 1021.0 0.0 4.6 4.6 0.0
24/05/18 02:24 4.6 97 4.2 0.0 0.0 0 34.8 0.0 1021.0 0.0 4.6 4.6 0.0
24/05/18 02:23 4.6 97 4.2 0.0 0.0 0 34.8 0.0 1021.0 0.0 4.6 4.6 0.0
24/05/18 02:22 4.6 97 4.2 0.0 0.0 0 34.8 0.0 1021.0 0.0 4.6 4.6 0.0
24/05/18 02:21 4.6 97 4.2 0.0 0.0 0 34.8 0.0 1021.0 0.0 4.6 4.6 0.0
24/05/18 02:20 4.7 96 4.1 0.0 0.0 0 34.8 0.0 1021.0 0.0 4.7 4.7 0.0
24/05/18 02:19 4.7 96 4.1 0.0 0.0 0 34.8 0.0 1021.0 0.0 4.7 4.7 0.0
24/05/18 02:18 4.7 96 4.1 0.0 0.0 0 34.8 0.0 1021.0 0.0 4.7 4.7 0.0
24/05/18 02:17 4.7 96 4.1 0.0 0.0 0 34.8 0.0 1021.0 0.0 4.7 4.7 0.0
24/05/18 02:16 4.7 96 4.1 0.0 0.0 0 34.8 0.0 1021.0 0.0 4.7 4.7 0.0
24/05/18 02:15 4.7 96 4.1 0.0 0.0 0 34.8 0.0 1021.0 0.0 4.7 4.7 0.0
24/05/18 02:14 4.7 96 4.1 0.0 0.0 0 34.8 0.0 1021.0 0.0 4.7 4.7 0.0
24/05/18 02:13 4.7 96 4.1 0.0 0.0 0 34.8 0.0 1021.0 0.0 4.7 4.7 0.0
24/05/18 02:12 4.7 96 4.1 0.0 0.0 0 34.8 0.0 1021.0 0.0 4.7 4.7 0.0
24/05/18 02:11 4.7 96 4.1 0.0 0.0 0 34.8 0.0 1021.0 0.0 4.7 4.7 0.0
24/05/18 02:10 4.7 96 4.1 0.0 0.0 0 34.8 0.0 1021.0 0.0 4.7 4.7 0.0
24/05/18 02:09 4.7 96 4.1 0.0 0.0 0 34.8 0.0 1021.0 0.0 4.7 4.7 0.0
24/05/18 02:08 4.7 96 4.1 0.0 0.0 0 34.8 0.0 1021.0 0.0 4.7 4.7 0.0
24/05/18 02:07 4.7 96 4.1 0.0 0.0 0 34.8 0.0 1021.0 0.0 4.7 4.7 0.0
24/05/18 02:06 4.7 96 4.1 0.0 0.0 0 34.8 0.0 1021.0 0.0 4.7 4.7 0.0
24/05/18 02:05 4.8 96 4.2 0.0 0.0 0 34.8 0.0 1021.0 0.0 4.8 4.8 0.0
24/05/18 02:04 4.8 96 4.2 0.0 0.0 0 34.8 0.0 1021.0 0.0 4.8 4.8 0.0
24/05/18 02:02 4.9 96 4.3 0.0 0.0 0 34.8 0.0 1021.0 0.0 4.9 4.9 0.0
24/05/18 02:01 4.9 96 4.3 0.0 0.0 0 34.8 0.0 1021.0 0.0 4.9 4.9 0.0
24/05/18 02:00 5.0 96 4.4 0.0 0.0 0 34.8 0.0 1021.0 0.0 5.0 5.0 0.0
24/05/18 01:59 5.0 96 4.4 0.0 0.0 0 34.8 0.0 1021.0 0.0 5.0 5.0 0.0
24/05/18 01:58 5.0 96 4.4 0.0 0.0 0 34.8 0.0 1021.0 0.0 5.0 5.0 0.0
24/05/18 01:57 5.1 96 4.5 0.0 0.0 0 34.8 0.0 1021.0 0.0 5.1 5.1 0.0
24/05/18 01:56 5.1 96 4.5 0.0 0.0 0 34.8 0.0 1021.0 0.0 5.1 5.1 0.0
24/05/18 01:55 5.1 96 4.5 0.0 0.0 0 34.8 0.0 1021.0 0.0 5.1 5.1 0.0
24/05/18 01:54 5.2 96 4.6 0.0 0.0 0 34.8 0.0 1021.0 0.0 5.2 5.2 0.0
24/05/18 01:53 5.2 96 4.6 0.0 0.0 0 34.8 0.0 1021.0 0.0 5.2 5.2 0.0
24/05/18 01:52 5.2 96 4.6 0.0 0.0 0 34.8 0.0 1021.0 0.0 5.2 5.2 0.0
24/05/18 01:51 5.2 96 4.6 0.0 0.0 0 34.8 0.0 1021.0 0.0 5.2 5.2 0.0
24/05/18 01:50 5.2 96 4.6 0.0 0.0 0 34.8 0.0 1021.0 0.0 5.2 5.2 0.0
24/05/18 01:49 5.2 96 4.6 0.0 0.0 0 34.8 0.0 1021.0 0.0 5.2 5.2 0.0
24/05/18 01:48 5.2 96 4.6 0.0 0.0 0 34.8 0.0 1021.0 0.0 5.2 5.2 0.0
24/05/18 01:47 5.2 96 4.6 0.0 0.0 0 34.8 0.0 1021.0 0.0 5.2 5.2 0.0
24/05/18 01:46 5.2 96 4.6 0.0 0.0 0 34.8 0.0 1021.0 0.0 5.2 5.2 0.0
24/05/18 01:45 5.3 96 4.7 0.0 0.0 0 34.8 0.0 1021.0 0.0 5.3 5.3 0.0
24/05/18 01:44 5.3 96 4.7 0.0 0.0 0 34.8 0.0 1021.0 0.0 5.3 5.3 0.0
24/05/18 01:43 5.3 96 4.7 0.0 0.0 0 34.8 0.0 1021.0 0.0 5.3 5.3 0.0
24/05/18 01:42 5.3 96 4.7 0.0 0.0 0 34.8 0.0 1021.0 0.0 5.3 5.3 0.0
24/05/18 01:41 5.3 96 4.7 0.0 0.0 0 34.8 0.0 1021.0 0.0 5.3 5.3 0.0
24/05/18 01:40 5.3 96 4.7 0.0 0.0 0 34.8 0.0 1021.0 0.0 5.3 5.3 0.0
24/05/18 01:39 5.4 96 4.8 0.0 0.0 0 34.8 0.0 1021.0 0.0 5.4 5.4 0.0
24/05/18 01:38 5.4 96 4.8 0.0 0.0 0 34.8 0.0 1021.0 0.0 5.4 5.4 0.0
24/05/18 01:37 5.4 96 4.8 0.0 0.0 0 34.8 0.0 1021.0 0.0 5.4 5.4 0.0
24/05/18 01:36 5.4 96 4.8 0.0 0.0 0 34.8 0.0 1021.0 0.0 5.4 5.4 0.0
24/05/18 01:35 5.5 96 4.9 0.0 0.0 0 34.8 0.0 1021.0 0.0 5.5 5.5 0.0
24/05/18 01:34 5.4 96 4.8 0.0 0.0 0 34.8 0.0 1021.0 0.0 5.4 5.4 0.0
24/05/18 01:33 5.4 96 4.8 0.0 0.0 0 34.8 0.0 1021.0 0.0 5.4 5.4 0.0
24/05/18 01:32 5.4 96 4.8 0.0 0.0 0 34.8 0.0 1021.0 0.0 5.4 5.4 0.0
24/05/18 01:31 5.3 96 4.7 0.0 0.0 0 34.8 0.0 1021.0 0.0 5.3 5.3 0.0
24/05/18 01:30 5.3 96 4.7 0.0 0.0 0 34.8 0.0 1021.0 0.0 5.3 5.3 0.0
24/05/18 01:29 5.3 96 4.7 0.0 0.0 0 34.8 0.0 1021.0 0.0 5.3 5.3 0.0
24/05/18 01:28 5.3 96 4.7 0.0 0.0 0 34.8 0.0 1021.0 0.0 5.3 5.3 0.0
24/05/18 01:26 5.3 96 4.7 0.0 0.0 0 34.8 0.0 1021.0 0.0 5.3 5.3 0.0
24/05/18 01:25 5.3 96 4.7 0.0 0.0 0 34.8 0.0 1021.0 0.0 5.3 5.3 0.0
24/05/18 01:24 5.4 96 4.8 0.0 0.0 0 34.8 0.0 1022.0 0.0 5.4 5.4 0.0
24/05/18 01:23 5.4 95 4.7 0.0 0.0 0 34.8 0.0 1022.0 0.0 5.4 5.4 0.0
24/05/18 01:22 5.4 95 4.7 0.0 0.0 0 34.8 0.0 1022.0 0.0 5.4 5.4 0.0
24/05/18 01:21 5.4 95 4.7 0.0 0.0 0 34.8 0.0 1022.0 0.0 5.4 5.4 0.0
24/05/18 01:20 5.4 95 4.7 0.0 0.0 0 34.8 0.0 1022.0 0.0 5.4 5.4 0.0
24/05/18 01:19 5.4 95 4.7 0.0 0.0 0 34.8 0.0 1022.0 0.0 5.4 5.4 0.0
24/05/18 01:18 5.4 95 4.7 0.0 0.0 0 34.8 0.0 1022.0 0.0 5.4 5.4 0.0
24/05/18 01:17 5.4 95 4.7 0.0 0.0 0 34.8 0.0 1022.0 0.0 5.4 5.4 0.0
24/05/18 01:16 5.4 95 4.7 0.0 0.0 0 34.8 0.0 1022.0 0.0 5.4 5.4 0.0
24/05/18 01:15 5.4 95 4.7 0.0 0.0 0 34.8 0.0 1022.0 0.0 5.4 5.4 0.0
24/05/18 01:14 5.4 95 4.7 0.0 0.0 0 34.8 0.0 1022.0 0.0 5.4 5.4 0.0
24/05/18 01:13 5.4 95 4.7 0.0 0.0 0 34.8 0.0 1022.0 0.0 5.4 5.4 0.0
24/05/18 01:12 5.4 95 4.7 0.0 0.0 0 34.8 0.0 1022.0 0.0 5.4 5.4 0.0
24/05/18 01:11 5.4 95 4.7 0.0 0.0 0 34.8 0.0 1022.0 0.0 5.4 5.4 0.0
24/05/18 01:10 5.4 95 4.7 0.0 0.0 0 34.8 0.0 1022.0 0.0 5.4 5.4 0.0
24/05/18 01:09 5.4 95 4.7 0.0 0.0 0 34.8 0.0 1022.0 0.0 5.4 5.4 0.0
24/05/18 01:08 5.4 95 4.7 0.0 0.0 0 34.8 0.0 1022.0 0.0 5.4 5.4 0.0
24/05/18 01:07 5.4 95 4.7 0.0 0.0 0 34.8 0.0 1022.0 0.0 5.4 5.4 0.0
24/05/18 01:03 5.4 95 4.7 0.0 0.0 0 34.8 0.0 1022.0 0.0 5.4 5.4 0.0
24/05/18 01:02 5.4 95 4.7 0.0 0.0 0 34.8 0.0 1022.0 0.0 5.5 5.4 0.0
24/05/18 01:02 5.5 95 4.8 0.0 0.0 0 34.8 0.0 1022.0 0.0 5.5 5.5 0.0
24/05/18 01:01 5.5 95 4.8 0.0 0.0 0 34.8 0.0 1022.0 0.0 5.5 5.5 0.0
24/05/18 01:00 5.6 95 4.9 0.0 0.0 0 34.8 0.0 1022.0 0.0 5.6 5.6 0.0
24/05/18 00:59 5.6 95 4.9 0.0 0.0 0 34.8 0.0 1022.0 0.0 5.6 5.6 0.0
24/05/18 00:58 5.6 95 4.9 0.0 0.0 0 34.8 0.0 1022.0 0.0 5.6 5.6 0.0
24/05/18 00:57 5.6 95 4.9 0.0 0.0 0 34.8 0.0 1022.0 0.0 5.6 5.6 0.0
24/05/18 00:56 5.6 95 4.9 0.0 0.0 0 34.8 0.0 1022.0 0.0 5.6 5.6 0.0
24/05/18 00:55 5.6 95 4.9 0.0 0.0 0 34.8 0.0 1022.0 0.0 5.6 5.6 0.0
24/05/18 00:54 5.6 95 4.9 0.0 0.0 0 34.8 0.0 1022.0 0.0 5.6 5.6 0.0
24/05/18 00:53 5.6 95 4.9 0.0 0.0 0 34.8 0.0 1022.0 0.0 5.6 5.6 0.0
24/05/18 00:52 5.6 95 4.9 0.0 0.0 0 34.8 0.0 1022.0 0.0 5.6 5.6 0.0
24/05/18 00:51 5.6 95 4.9 0.0 0.0 0 34.8 0.0 1022.0 0.0 5.6 5.6 0.0
24/05/18 00:50 5.7 95 5.0 0.0 0.0 0 34.8 0.0 1022.0 0.0 5.7 5.7 0.0
24/05/18 00:49 5.7 95 5.0 0.0 0.0 0 34.8 0.0 1022.0 0.0 5.7 5.7 0.0
24/05/18 00:48 5.7 95 5.0 0.0 0.0 0 34.8 0.0 1022.0 0.0 5.7 5.7 0.0
24/05/18 00:44 5.7 95 5.0 0.0 0.0 0 0.0 0.0 1022.0 0.0 5.7 5.7 0.0
24/05/18 00:43 5.8 95 5.1 0.0 0.0 0 0.0 0.0 1022.0 0.0 5.8 5.8 0.0
24/05/18 00:42 5.8 95 5.1 0.0 0.0 0 0.0 0.0 1022.0 0.0 5.8 5.8 0.0
24/05/18 00:41 5.8 95 5.1 0.0 0.0 0 0.0 0.0 1022.0 0.0 5.8 5.8 0.0
24/05/18 00:40 5.8 95 5.1 0.0 0.0 0 0.0 0.0 1022.0 0.0 5.8 5.8 0.0
24/05/18 00:39 5.9 95 5.2 0.0 0.0 0 0.0 0.0 1022.0 0.0 5.9 5.9 0.0
24/05/18 00:38 5.9 95 5.2 0.0 0.0 0 0.0 0.0 1022.0 0.0 5.9 5.9 0.0
24/05/18 00:37 6.0 94 5.1 0.0 0.0 0 0.0 0.0 1022.0 0.0 6.0 6.0 0.0
24/05/18 00:36 6.0 94 5.1 0.0 0.0 0 0.0 0.0 1022.0 0.0 6.0 6.0 0.0
24/05/18 00:35 6.0 94 5.1 0.0 0.0 0 0.0 0.0 1022.0 0.0 6.0 6.0 0.0
24/05/18 00:34 6.0 94 5.1 0.0 0.0 0 0.0 0.0 1022.0 0.0 6.0 6.0 0.0
24/05/18 00:33 6.0 94 5.1 0.0 0.0 0 0.0 0.0 1022.0 0.0 6.0 6.0 0.0
24/05/18 00:32 6.0 94 5.1 0.0 0.0 0 0.0 0.0 1022.0 0.0 6.0 6.0 0.0
24/05/18 00:31 5.9 94 5.0 0.0 0.0 0 0.0 0.0 1022.0 0.0 5.9 5.9 0.0
24/05/18 00:30 5.9 94 5.0 0.0 0.0 0 0.0 0.0 1022.0 0.0 5.9 5.9 0.0
24/05/18 00:29 5.9 94 5.0 0.0 0.0 0 0.0 0.0 1022.0 0.0 5.9 5.9 0.0
24/05/18 00:28 6.0 94 5.1 0.0 0.0 0 0.0 0.0 1022.0 0.0 6.0 6.0 0.0
24/05/18 00:27 6.0 94 5.1 0.0 0.0 0 0.0 0.0 1022.0 0.0 6.0 6.0 0.0
24/05/18 00:26 6.0 94 5.1 0.0 0.0 0 0.0 0.0 1022.0 0.0 6.0 6.0 0.0
24/05/18 00:25 6.0 94 5.1 0.0 0.0 0 0.0 0.0 1022.0 0.0 6.0 6.0 0.0
24/05/18 00:24 6.0 94 5.1 0.0 0.0 0 0.0 0.0 1022.0 0.0 6.0 6.0 0.0
24/05/18 00:23 6.0 94 5.1 0.0 0.0 0 0.0 0.0 1022.0 0.0 6.0 6.0 0.0
24/05/18 00:22 6.0 94 5.1 0.0 0.0 0 0.0 0.0 1022.0 0.0 6.0 6.0 0.0
24/05/18 00:21 6.0 93 5.0 0.0 0.0 0 0.0 0.0 1022.0 0.0 6.0 6.0 0.0
24/05/18 00:20 6.0 93 5.0 0.0 0.0 0 0.0 0.0 1022.0 0.0 6.0 6.0 0.0
24/05/18 00:19 5.9 94 5.0 0.0 0.0 0 0.0 0.0 1022.0 0.0 5.9 5.9 0.0
24/05/18 00:18 5.9 94 5.0 0.0 0.0 0 0.0 0.0 1022.0 0.0 5.9 5.9 0.0
24/05/18 00:17 5.9 93 4.9 0.0 0.0 0 0.0 0.0 1022.0 0.0 5.9 5.9 0.0
24/05/18 00:16 5.8 93 4.8 0.0 0.0 0 0.0 0.0 1022.0 0.0 5.8 5.8 0.0
24/05/18 00:15 5.7 93 4.7 0.0 0.0 0 0.0 0.0 1022.0 0.0 5.7 5.7 0.0
24/05/18 00:14 5.7 93 4.7 0.0 0.0 0 0.0 0.0 1022.0 0.0 5.7 5.7 0.0
24/05/18 00:13 5.6 93 4.6 0.0 0.0 0 0.0 0.0 1022.0 0.0 5.6 5.6 0.0
24/05/18 00:12 5.5 92 4.3 0.0 0.0 0 0.0 0.0 1022.0 0.0 5.5 5.5 0.0
24/05/18 00:11 5.4 92 4.2 0.0 0.0 0 0.0 0.0 1022.0 0.0 5.4 5.4 0.0
24/05/18 00:10 5.4 92 4.2 0.0 0.0 0 0.0 0.0 1022.0 0.0 5.4 5.4 0.0
24/05/18 00:09 5.4 92 4.2 0.0 0.0 0 0.0 0.0 1022.0 0.0 5.4 5.4 0.0
24/05/18 00:08 5.3 92 4.1 0.0 0.0 0 0.0 0.0 1022.0 0.0 5.3 5.3 0.0
24/05/18 00:07 5.3 92 4.1 0.0 0.0 0 0.0 0.0 1023.0 0.0 5.3 5.3 0.0
24/05/18 00:06 5.3 92 4.1 0.0 0.0 0 0.0 0.0 1023.0 0.0 5.3 5.3 0.0
24/05/18 00:05 5.3 92 4.1 0.0 0.0 0 0.0 0.0 1023.0 0.0 5.3 5.3 0.0
24/05/18 00:04 5.3 91 3.9 0.0 0.0 0 0.0 0.0 1023.0 0.0 5.3 5.3 0.0
24/05/18 00:03 5.3 91 3.9 0.0 0.0 0 0.0 0.0 1023.0 0.0 5.3 5.3 0.0
24/05/18 00:02 5.3 91 3.9 0.0 0.0 0 0.0 0.0 1023.0 0.0 5.4 5.3 0.0
  Back to Top


This site is NOT a professional weather site.
Never base important decisions on this or any weather information obtained from the Internet.
Website Supported by Cumulus. Contact me Admin